M I D A S
Marine Information and Data Acquisition System
Tripno 841 of the Zeeleeuw from 2005-01-25 07:31:36 to 2005-01-25 16:34:44
Back to CruiseResearch ActivitiesStationsMapUnderway DataData graphs

EquipmentUnitsComment
TimeDGPSUTC
LatitudeDGPSDM.mWGS84
LongitudeDGPSDM.mWGS84
TemperatureSBE03/SBE38deg celciusITS90
ConductivitySBE21S/mITS90
SalinitySBE21 Practical Salinity Units
ChlorophylAChelsea fluorimeterg/lCalibrated in Aceton
Missing or incorrect values are displayed as -999
Sea surface data collected by the RV Zeeleeuw from 2005-01-25 07:32:50 to 2005-01-25 16:45:10
                                                                                    Next 1000 lines
Time Latitude Longitude Temperature Conductivity Salinity ChlorophylA
2005-01-25 07:33:00 51°13.595 2°56.098 7.7436 2.66149 24.719886 0.904221
2005-01-25 07:33:05 51°13.596 2°56.094 7.8052 2.66149 24.719886 0.904221
2005-01-25 07:33:11 51°13.597 2°56.09 7.7031 2.661175 24.723711 0.93793
2005-01-25 07:33:16 51°13.599 2°56.086 7.4226 2.652549 24.648506 0.836802
2005-01-25 07:33:21 51°13.6 2°56.081 7.2397 2.660439 24.774475 0.93793
2005-01-25 07:33:27 51°13.602 2°56.076 7.1378 2.654759 24.765891 0.904221
2005-01-25 07:33:31 51°13.603 2°56.071 6.961 2.640033 24.635494 0.93793
2005-01-25 07:33:36 51°13.605 2°56.066 6.8913 2.640033 24.635494 0.93793
2005-01-25 07:33:41 51°13.606 2°56.06 6.787 2.641821 24.656194 0.97164
2005-01-25 07:33:45 51°13.608 2°56.056 6.6435 2.648764 24.743399 0.93793
2005-01-25 07:33:51 51°13.609 2°56.049 6.5865 2.661809 24.984388 1.409862
2005-01-25 07:33:56 51°13.611 2°56.043 6.5212 2.695474 25.452637 1.949212
2005-01-25 07:34:01 51°13.613 2°56.036 6.4903 2.684219 25.466844 2.117759
2005-01-25 07:34:07 51°13.615 2°56.029 6.4102 2.684219 25.466844 2.117759
2005-01-25 07:34:11 51°13.617 2°56.023 6.383 2.688218 25.613145 2.387435
2005-01-25 07:34:16 51°13.619 2°56.016 6.3574 2.723568 26.106313 2.387435
2005-01-25 07:34:21 51°13.621 2°56.009 6.3222 2.728199 26.241447 2.488563
2005-01-25 07:34:25 51°13.623 2°56.003 6.2797 2.729673 26.347247 2.522272
2005-01-25 07:34:32 51°13.627 2°55.994 6.274 2.742615 26.557644 2.353725
2005-01-25 07:34:36 51°13.63 2°55.987 6.2129 2.742615 26.557644 2.353725
2005-01-25 07:34:41 51°13.633 2°55.98 6.2108 2.748718 26.679598 2.252597
2005-01-25 07:34:45 51°13.635 2°55.974 6.179 2.747035 26.715402 2.185178
2005-01-25 07:34:51 51°13.639 2°55.965 6.1446 2.753243 26.815938 2.050341
2005-01-25 07:34:56 51°13.641 2°55.957 6.1149 2.744616 26.762169 2.050341
2005-01-25 07:35:01 51°13.644 2°55.95 6.0839 2.746194 26.815961 2.016631
2005-01-25 07:35:05 51°13.646 2°55.944 6.0749 2.746194 26.815961 2.016631
2005-01-25 07:35:11 51°13.651 2°55.935 6.0307 2.720944 26.570631 2.016631
2005-01-25 07:35:17 51°13.655 2°55.926 6.0314 2.730413 26.70519 1.949212
2005-01-25 07:35:21 51°13.659 2°55.919 6.029 2.74609 26.901002 1.915503
2005-01-25 07:35:26 51°13.663 2°55.91 5.986 2.752509 27.006169 1.915503
2005-01-25 07:35:31 51°13.666 2°55.902 5.9792 2.748511 26.988777 1.881794
2005-01-25 07:35:36 51°13.669 2°55.895 5.9606 2.748511 26.988777 1.881794
2005-01-25 07:35:41 51°13.673 2°55.887 5.9655 2.729678 26.809581 1.848084
2005-01-25 07:35:46 51°13.676 2°55.878 5.9369 2.76945 27.265346 1.915503
2005-01-25 07:35:52 51°13.68 2°55.87 5.9388 2.77187 27.316391 1.848084
2005-01-25 07:35:56 51°13.683 2°55.862 5.9551 2.786075 27.481705 1.881794
2005-01-25 07:36:01 51°13.686 2°55.854 5.9418 2.792389 27.575386 1.848084
2005-01-25 07:36:05 51°13.688 2°55.848 5.9079 2.792389 27.575386 1.848084
2005-01-25 07:36:11 51°13.692 2°55.838 5.8922 2.801438 27.691351 1.848084
2005-01-25 07:36:16 51°13.694 2°55.83 5.8773 2.794809 27.631761 1.848084
2005-01-25 07:36:21 51°13.698 2°55.82 5.8745 2.806489 27.773771 1.915503
2005-01-25 07:36:26 51°13.7 2°55.811 5.877 2.815855 27.882968 1.848084
2005-01-25 07:36:31 51°13.703 2°55.8 5.8635 2.805753 27.78052 1.881794
2005-01-25 07:36:36 51°13.705 2°55.791 5.8543 2.805753 27.78052 1.881794
2005-01-25 07:36:41 51°13.707 2°55.78 5.8498 2.803438 27.764417 1.881794
2005-01-25 07:36:46 51°13.709 2°55.77 5.8386 2.804385 27.788139 1.949212
2005-01-25 07:36:51 51°13.71 2°55.76 5.8326 2.799755 27.752387 1.915503
2005-01-25 07:36:56 51°13.712 2°55.752 5.8228 2.802176 27.79081 2.050341
2005-01-25 07:37:01 51°13.713 2°55.742 5.8215 2.798282 27.755325 2.050341
2005-01-25 07:37:05 51°13.714 2°55.736 5.8083 2.798282 27.755325 2.050341
2005-01-25 07:37:11 51°13.715 2°55.729 5.7966 2.798914 27.774218 2.117759
2005-01-25 07:37:16 51°13.715 2°55.726 5.8013 2.805122 27.850591 2.185178
2005-01-25 07:37:20 51°13.716 2°55.723 5.7897 2.780921 27.593737 2.387435
2005-01-25 07:37:25 51°13.716 2°55.722 5.8011 2.764612 27.424641 2.286306
2005-01-25 07:37:30 51°13.716 2°55.722 5.7867 2.794179 27.752792 2.353725
2005-01-25 07:37:36 51°13.716 2°55.724 5.782 2.794179 27.752792 2.353725
2005-01-25 07:37:41 51°13.718 2°55.726 5.7868 2.785761 27.669158 2.353725
2005-01-25 07:37:45 51°13.719 2°55.728 5.7879 2.754616 27.339129 2.353725
2005-01-25 07:37:51 51°13.721 2°55.732 5.7892 2.763981 27.44847 2.387435
2005-01-25 07:37:56 51°13.723 2°55.734 5.794 2.759562 27.406433 2.387435
2005-01-25 07:38:00 51°13.724 2°55.735 5.7885 2.73147 27.104278 2.353725
2005-01-25 07:38:05 51°13.725 2°55.736 5.7841 2.73147 27.104278 2.353725
2005-01-25 07:38:11 51°13.725 2°55.735 5.7794 2.709691 26.871331 2.353725
2005-01-25 07:38:16 51°13.725 2°55.734 5.7794 2.694858 26.712921 2.488563
2005-01-25 07:38:20 51°13.723 2°55.733 5.7755 2.659826 26.332551 2.488563
2005-01-25 07:38:26 51°13.722 2°55.73 5.7722 2.662035 26.354588 2.387435
2005-01-25 07:38:31 51°13.719 2°55.728 5.7678 2.64268 26.143952 2.421144
2005-01-25 07:38:36 51°13.717 2°55.725 5.7744 2.64268 26.143952 2.421144
2005-01-25 07:38:41 51°13.715 2°55.724 5.7713 2.624903 25.951997 2.454853
2005-01-25 07:38:47 51°13.714 2°55.722 5.7655 2.610071 25.795472 2.522272
2005-01-25 07:38:51 51°13.714 2°55.722 5.7644 2.5802 25.473206 2.6234
2005-01-25 07:38:56 51°13.715 2°55.723 5.7591 2.608494 25.783593 2.589691
2005-01-25 07:39:01 51°13.717 2°55.723 5.7585 2.595136 25.641144 2.6234
2005-01-25 07:39:06 51°13.72 2°55.722 5.763 2.595136 25.641144 2.6234
2005-01-25 07:39:11 51°13.724 2°55.721 5.7652 2.587563 25.562199 2.758238
2005-01-25 07:39:17 51°13.729 2°55.719 5.7681 2.615962 25.871992 2.65711
2005-01-25 07:39:21 51°13.733 2°55.716 5.7623 2.641312 26.148403 2.690819
2005-01-25 07:39:25 51°13.737 2°55.713 5.7701 2.657302 26.326537 2.690819
2005-01-25 07:39:31 51°13.743 2°55.707 5.7725 2.673502 26.505814 2.65711
2005-01-25 07:39:36 51°13.75 2°55.701 5.7708 2.673502 26.505814 2.65711
2005-01-25 07:39:40 51°13.755 2°55.697 5.7797 2.677395 26.549618 2.589691
2005-01-25 07:39:45 51°13.763 2°55.689 5.7751 2.669925 26.468164 2.65711
2005-01-25 07:39:51 51°13.772 2°55.682 5.7715 2.663614 26.399355 2.690819
2005-01-25 07:39:56 51°13.78 2°55.674 5.7709 2.670662 26.476193 2.589691
2005-01-25 07:40:01 51°13.789 2°55.665 5.7695 2.664981 26.412914 2.589691
2005-01-25 07:40:06 51°13.798 2°55.658 5.7713 2.664981 26.412914 2.589691
2005-01-25 07:40:11 51°13.806 2°55.65 5.7699 2.647414 26.219502 2.6234
2005-01-25 07:40:16 51°13.816 2°55.642 5.7724 2.643311 26.173496 2.690819
2005-01-25 07:40:21 51°13.826 2°55.634 5.7669 2.653094 26.277348 2.724529
2005-01-25 07:40:25 51°13.834 2°55.626 5.7699 2.65341 26.282125 2.758238
2005-01-25 07:40:31 51°13.846 2°55.616 5.7657 2.613753 25.851938 2.825657
2005-01-25 07:40:36 51°13.855 2°55.608 5.7629 2.613753 25.851938 2.825657
2005-01-25 07:40:41 51°13.866 2°55.6 5.7539 2.607126 25.781886 2.825657
2005-01-25 07:40:45 51°13.875 2°55.592 5.7523 2.584828 25.539031 2.859366
2005-01-25 07:40:51 51°13.887 2°55.584 5.7551 2.560743 25.277732 2.893076
2005-01-25 07:40:56 51°13.898 2°55.576 5.7541 2.547596 25.137806 2.825657
2005-01-25 07:41:01 51°13.908 2°55.567 5.7568 2.542759 25.08731 2.791947
2005-01-25 07:41:05 51°13.918 2°55.56 5.7654 2.542759 25.08731 2.791947
2005-01-25 07:41:11 51°13.93 2°55.551 5.7523 2.547176 25.137095 2.724529
2005-01-25 07:41:16 51°13.941 2°55.544 5.7591 2.559796 25.275206 2.724529
2005-01-25 07:41:21 51°13.952 2°55.536 5.75 2.567579 25.362864 2.65711
2005-01-25 07:41:25 51°13.962 2°55.529 5.7497 2.597029 25.683967 2.65711
2005-01-25 07:41:31 51°13.975 2°55.519 5.7445 2.612386 25.852241 2.6234
2005-01-25 07:41:36 51°13.985 2°55.512 5.7437 2.612386 25.852241 2.6234
2005-01-25 07:41:40 51°13.994 2°55.505 5.7496 2.648676 26.24664 2.589691
2005-01-25 07:41:45 51°14.006 2°55.495 5.7441 2.672871 26.511106 2.6234
2005-01-25 07:41:50 51°14.017 2°55.488 5.7386 2.691071 26.711109 2.589691
2005-01-25 07:41:56 51°14.03 2°55.479 5.7411 2.716636 26.992521 2.589691
2005-01-25 07:42:00 51°14.039 2°55.473 5.739 2.730103 27.141904 2.522272
2005-01-25 07:42:05 51°14.052 2°55.464 5.732 2.730103 27.141904 2.522272
2005-01-25 07:42:11 51°14.064 2°55.456 5.7399 2.701802 26.833115 2.6234
2005-01-25 07:42:16 51°14.076 2°55.448 5.7395 2.73126 27.158036 2.555982
2005-01-25 07:42:20 51°14.085 2°55.442 5.7431 2.744938 27.309181 2.555982
2005-01-25 07:42:25 51°14.097 2°55.433 5.748 2.736836 27.223247 2.6234
2005-01-25 07:42:31 51°14.109 2°55.424 5.7433 2.749988 27.370795 2.6234
2005-01-25 07:42:36 51°14.121 2°55.416 5.749 2.749988 27.370795 2.6234
2005-01-25 07:42:40 51°14.13 2°55.409 5.7528 2.759983 27.481758 2.6234
2005-01-25 07:42:45 51°14.142 2°55.401 5.7555 2.775661 27.655128 2.724529
2005-01-25 07:42:51 51°14.154 2°55.391 5.7508 2.77261 27.61953 2.65711
2005-01-25 07:42:56 51°14.165 2°55.381 5.7598 2.783447 27.737042 2.724529
2005-01-25 07:43:01 51°14.175 2°55.37 5.7559 2.774188 27.634022 2.690819
2005-01-25 07:43:05 51°14.184 2°55.36 5.7631 2.774188 27.634022 2.690819
2005-01-25 07:43:11 51°14.195 2°55.347 5.7663 2.780922 27.707202 2.6234
2005-01-25 07:43:16 51°14.204 2°55.335 5.7653 2.760194 27.477747 2.589691
2005-01-25 07:43:20 51°14.213 2°55.324 5.7634 2.759563 27.468722 2.488563
2005-01-25 07:43:25 51°14.222 2°55.311 5.774 2.774293 27.62953 2.387435
2005-01-25 07:43:31 51°14.232 2°55.295 5.7704 2.771978 27.602027 2.286306
2005-01-25 07:43:36 51°14.24 2°55.282 5.7641 2.771978 27.602027 2.286306
2005-01-25 07:43:41 51°14.249 2°55.268 5.7683 2.765034 27.525184 2.151469
2005-01-25 07:43:45 51°14.257 2°55.255 5.7655 2.782079 27.709994 2.016631
2005-01-25 07:43:51 51°14.266 2°55.237 5.7629 2.77061 27.583505 1.982922
2005-01-25 07:43:56 51°14.274 2°55.224 5.7646 2.776924 27.651321 1.848084
2005-01-25 07:44:00 51°14.281 2°55.211 5.7734 2.76314 27.498806 1.848084
2005-01-25 07:44:05 51°14.29 2°55.194 5.7759 2.76314 27.498806 1.848084
2005-01-25 07:44:10 51°14.299 2°55.178 5.7708 2.769032 27.562683 1.814375
2005-01-25 07:44:16 51°14.309 2°55.159 5.773 2.753355 27.391599 1.713247
2005-01-25 07:44:20 51°14.316 2°55.146 5.776 2.770189 27.576074 1.746956
2005-01-25 07:44:25 51°14.325 2°55.127 5.7686 2.773872 27.617155 1.612118
2005-01-25 07:44:30 51°14.333 2°55.112 5.7641 2.771768 27.594786 1.578409
2005-01-25 07:44:36 51°14.345 2°55.091 5.7591 2.771768 27.594786 1.578409
2005-01-25 07:44:41 51°14.355 2°55.074 5.7503 2.752408 27.37913 1.578409
2005-01-25 07:44:45 51°14.364 2°55.057 5.7508 2.767033 27.537958 1.578409
2005-01-25 07:44:50 51°14.373 2°55.041 5.7477 2.77524 27.627216 1.612118
2005-01-25 07:44:56 51°14.386 2°55.019 5.7263 2.77787 27.656058 1.5447
2005-01-25 07:45:01 51°14.396 2°55 5.7066 2.773451 27.609016 1.578409
2005-01-25 07:45:05 51°14.405 2°54.983 5.687 2.773451 27.609016 1.578409
2005-01-25 07:45:11 51°14.416 2°54.962 5.6577 2.80102 27.914309 1.578409
2005-01-25 07:45:16 51°14.426 2°54.941 5.6186 2.803545 27.947033 1.5447
2005-01-25 07:45:20 51°14.436 2°54.923 5.5797 2.804492 27.959576 1.612118
2005-01-25 07:45:25 51°14.444 2°54.903 5.5431 2.811543 28.042758 1.679537
2005-01-25 07:45:31 51°14.454 2°54.881 5.5336 2.827643 28.231307 1.713247
2005-01-25 07:45:36 51°14.467 2°54.861 5.5306 2.827643 28.231307 1.713247
2005-01-25 07:45:40 51°14.476 2°54.847 5.5093 2.827538 28.245309 1.746956
2005-01-25 07:45:45 51°14.49 2°54.829 5.5072 2.836588 28.367453 1.746956
2005-01-25 07:45:51 51°14.505 2°54.813 5.4975 2.860372 28.656168 1.881794
2005-01-25 07:45:56 51°14.52 2°54.8 5.5178 2.870685 28.803329 2.050341
2005-01-25 07:46:01 51°14.532 2°54.789 5.4888 2.865739 28.774448 2.08405
2005-01-25 07:46:05 51°14.545 2°54.779 5.5005 2.865739 28.774448 2.08405
2005-01-25 07:46:11 51°14.562 2°54.766 5.5131 2.898575 29.163745 2.252597
2005-01-25 07:46:16 51°14.576 2°54.757 5.5168 2.898891 29.17775 2.218888
2005-01-25 07:46:21 51°14.59 2°54.747 5.5283 2.92573 29.491104 2.252597
2005-01-25 07:46:25 51°14.603 2°54.739 5.5381 2.958359 29.86202 2.252597
2005-01-25 07:46:31 51°14.62 2°54.728 5.5428 2.981727 30.128002 2.320016
2005-01-25 07:46:36 51°14.633 2°54.719 5.5555 2.981727 30.128002 2.320016
2005-01-25 07:46:40 51°14.645 2°54.711 5.5678 3.00278 30.371642 2.320016
2005-01-25 07:46:45 51°14.66 2°54.699 5.5696 3.010885 30.463008 2.353725
2005-01-25 07:46:51 51°14.676 2°54.687 5.5776 2.999516 30.331278 2.387435
2005-01-25 07:46:56 51°14.69 2°54.676 5.5916 3.026676 30.62774 2.353725
2005-01-25 07:47:01 51°14.704 2°54.666 5.6067 3.047414 30.850218 2.421144
2005-01-25 07:47:05 51°14.717 2°54.657 5.614 3.047414 30.850218 2.421144
2005-01-25 07:47:09 51°14.728 2°54.649 5.6218 3.061521 31.000938 2.454853
2005-01-25 07:47:16 51°14.747 2°54.636 5.6278 3.048677 30.848472 2.6234
2005-01-25 07:47:21 51°14.763 2°54.627 5.6338 3.064574 31.018353 2.522272
2005-01-25 07:47:25 51°14.775 2°54.619 5.6412 3.067416 31.039783 2.555982
2005-01-25 07:47:31 51°14.792 2°54.608 5.6436 3.08384 31.211559 2.522272
2005-01-25 07:47:35 51°14.804 2°54.602 5.6446 3.08384 31.211559 2.522272
2005-01-25 07:47:41 51°14.822 2°54.593 5.6468 3.091104 31.280817 2.454853
2005-01-25 07:47:45 51°14.834 2°54.587 5.6455 3.091209 31.27155 2.454853
2005-01-25 07:47:51 51°14.85 2°54.58 5.6565 3.066153 30.981836 2.421144
2005-01-25 07:47:56 51°14.865 2°54.575 5.656 3.095631 31.304947 2.421144
2005-01-25 07:48:00 51°14.878 2°54.57 5.651 3.097105 31.314198 2.454853
2005-01-25 07:48:06 51°14.895 2°54.563 5.6537 3.097105 31.314198 2.454853
2005-01-25 07:48:11 51°14.911 2°54.557 5.6457 3.075943 31.074483 2.454853
2005-01-25 07:48:16 51°14.924 2°54.55 5.6581 3.112582 31.48168 2.522272
2005-01-25 07:48:20 51°14.937 2°54.543 5.6542 3.09521 31.284978 2.6234
2005-01-25 07:48:25 51°14.952 2°54.535 5.6571 3.104896 31.389256 2.6234
2005-01-25 07:48:31 51°14.969 2°54.525 5.6548 3.101106 31.345267 2.758238
2005-01-25 07:48:36 51°14.982 2°54.518 5.6755 3.101106 31.345267 2.758238
2005-01-25 07:48:41 51°14.996 2°54.509 5.6591 3.104264 31.378972 2.893076
2005-01-25 07:48:46 51°15.011 2°54.501 5.6591 3.102896 31.365278 2.893076
2005-01-25 07:48:51 51°15.025 2°54.492 5.659 3.109529 31.438646 3.061623
2005-01-25 07:48:56 51°15.04 2°54.483 5.6723 3.101527 31.347563 3.129042
2005-01-25 07:49:01 51°15.054 2°54.475 5.6697 3.094789 31.269039 3.19646
2005-01-25 07:49:05 51°15.066 2°54.468 5.6789 3.094789 31.269039 3.19646
2005-01-25 07:49:11 51°15.082 2°54.458 5.6708 3.116056 31.504391 3.263879
2005-01-25 07:49:16 51°15.098 2°54.449 5.6722 3.113529 31.475322 3.263879
2005-01-25 07:49:20 51°15.109 2°54.442 5.6756 3.123953 31.593541 3.23017
2005-01-25 07:49:26 51°15.126 2°54.434 5.6711 3.107002 31.404747 3.23017
2005-01-25 07:49:31 51°15.14 2°54.427 5.6617 3.121531 31.563208 3.263879
2005-01-25 07:49:36 51°15.155 2°54.421 5.6695 3.121531 31.563208 3.263879
2005-01-25 07:49:40 51°15.167 2°54.416 5.6479 3.121952 31.5663 3.19646
2005-01-25 07:49:46 51°15.186 2°54.408 5.6521 3.120899 31.552904 3.23017
2005-01-25 07:49:51 51°15.2 2°54.402 5.6505 3.119531 31.535169 2.994204
2005-01-25 07:49:56 51°15.215 2°54.396 5.6421 3.11732 31.509634 3.095332
2005-01-25 07:50:01 51°15.23 2°54.389 5.6446 3.11574 31.493589 3.027913
2005-01-25 07:50:06 51°15.245 2°54.381 5.6463 3.11574 31.493589 3.027913
2005-01-25 07:50:11 51°15.259 2°54.374 5.6519 3.118583 31.53023 2.926785
2005-01-25 07:50:16 51°15.273 2°54.366 5.6588 3.106265 31.394897 3.095332
2005-01-25 07:50:21 51°15.288 2°54.358 5.6596 3.1209 31.560997 3.027913
2005-01-25 07:50:26 51°15.302 2°54.35 5.6652 3.118267 31.537211 3.061623
2005-01-25 07:50:31 51°15.318 2°54.341 5.6628 3.100369 31.341047 3.129042
2005-01-25 07:50:36 51°15.331 2°54.335 5.6634 3.100369 31.341047 3.129042
2005-01-25 07:50:41 51°15.345 2°54.327 5.675 3.1209 31.573144 3.19646
2005-01-25 07:50:45 51°15.359 2°54.321 5.6666 3.121742 31.580141 3.365007
2005-01-25 07:50:51 51°15.376 2°54.312 5.6763 3.101106 31.346875 3.499845
2005-01-25 07:50:56 51°15.389 2°54.307 5.6674 3.118057 31.533237 3.76952
2005-01-25 07:51:01 51°15.405 2°54.299 5.6606 3.117636 31.52529 3.836939
2005-01-25 07:51:05 51°15.417 2°54.294 5.6601 3.117636 31.52529 3.836939
2005-01-25 07:51:11 51°15.433 2°54.287 5.6667 3.11732 31.519331 3.80323
2005-01-25 07:51:16 51°15.448 2°54.281 5.6599 3.120794 31.555772 3.904358
2005-01-25 07:51:20 51°15.461 2°54.274 5.66 3.118899 31.532146 3.702101
2005-01-25 07:51:26 51°15.477 2°54.265 5.6622 3.107844 31.408526 3.668392
2005-01-25 07:51:31 51°15.493 2°54.257 5.6674 3.10658 31.396013 3.567264
2005-01-25 07:51:36 51°15.506 2°54.25 5.6688 3.10658 31.396013 3.567264
2005-01-25 07:51:41 51°15.52 2°54.243 5.6717 3.107107 31.404314 3.600973
2005-01-25 07:51:45 51°15.534 2°54.236 5.6725 3.112266 31.462807 3.499845
2005-01-25 07:51:51 51°15.551 2°54.228 5.6645 3.090998 31.226689 3.567264
2005-01-25 07:51:55 51°15.563 2°54.222 5.6654 3.099316 31.320437 3.600973
2005-01-25 07:52:00 51°15.576 2°54.216 5.6751 3.094157 31.261178 3.567264
2005-01-25 07:52:05 51°15.592 2°54.209 5.6649 3.094157 31.261178 3.567264
2005-01-25 07:52:10 51°15.605 2°54.203 5.6656 3.114898 31.489014 3.600973
2005-01-25 07:52:16 51°15.623 2°54.195 5.6744 3.111845 31.454064 3.76952
2005-01-25 07:52:20 51°15.635 2°54.19 5.6784 3.103317 31.357921 3.600973
2005-01-25 07:52:25 51°15.651 2°54.183 5.6788 3.083523 31.139196 3.600973
2005-01-25 07:52:29 51°15.663 2°54.177 5.6703 3.105106 31.379535 3.567264
2005-01-25 07:52:36 51°15.681 2°54.168 5.6783 3.105106 31.379535 3.567264
2005-01-25 07:52:41 51°15.696 2°54.161 5.6789 3.099842 31.319091 3.533554
2005-01-25 07:52:45 51°15.709 2°54.155 5.6799 3.097421 31.293637 3.600973
2005-01-25 07:52:51 51°15.726 2°54.146 5.6841 3.083418 31.137222 3.668392
2005-01-25 07:52:56 51°15.739 2°54.14 5.6868 3.094578 31.258669 3.634683
2005-01-25 07:53:01 51°15.755 2°54.132 5.6917 3.099947 31.317859 3.466136
2005-01-25 07:53:05 51°15.767 2°54.126 5.6996 3.099947 31.317859 3.466136
2005-01-25 07:53:11 51°15.783 2°54.119 5.6944 3.112582 31.457465 3.297589
2005-01-25 07:53:16 51°15.799 2°54.113 5.6918 3.119636 31.533112 3.095332
2005-01-25 07:53:20 51°15.809 2°54.11 5.6963 3.111318 31.438503 2.994204
2005-01-25 07:53:25 51°15.825 2°54.105 5.6916 3.093314 31.234945 2.758238
2005-01-25 07:53:31 51°15.841 2°54.101 5.6953 3.11574 31.483902 2.6234
2005-01-25 07:53:36 51°15.855 2°54.099 5.6893 3.11574 31.483902 2.6234
2005-01-25 07:53:40 51°15.868 2°54.099 5.6954 3.128375 31.621131 2.454853
2005-01-25 07:53:45 51°15.883 2°54.099 5.6919 3.114056 31.459427 2.421144
2005-01-25 07:53:51 51°15.9 2°54.1 5.6878 3.123742 31.566088 2.252597
2005-01-25 07:53:56 51°15.913 2°54.101 5.6927 3.125637 31.586469 2.185178
2005-01-25 07:54:01 51°15.927 2°54.103 5.6856 3.123531 31.562116 1.982922
2005-01-25 07:54:05 51°15.94 2°54.105 5.6828 3.123531 31.562116 1.982922
2005-01-25 07:54:11 51°15.956 2°54.109 5.6815 3.12848 31.615016 1.949212
2005-01-25 07:54:16 51°15.97 2°54.113 5.68 3.11216 31.43422 1.915503
2005-01-25 07:54:20 51°15.982 2°54.116 5.6761 3.10658 31.372683 1.848084
2005-01-25 07:54:25 51°15.996 2°54.122 5.6755 3.113108 31.448031 1.746956
2005-01-25 07:54:31 51°16.011 2°54.128 5.6741 3.120057 31.526507 1.679537
2005-01-25 07:54:35 51°16.024 2°54.134 5.6681 3.120057 31.526507 1.679537
2005-01-25 07:54:40 51°16.036 2°54.141 5.6684 3.133429 31.679285 1.645828
2005-01-25 07:54:45 51°16.05 2°54.149 5.6733 3.130902 31.65345 1.612118
2005-01-25 07:54:51 51°16.065 2°54.157 5.6731 3.128796 31.633138 1.645828
2005-01-25 07:54:56 51°16.078 2°54.165 5.6732 3.131323 31.663032 1.5447
2005-01-25 07:55:01 51°16.091 2°54.173 5.6745 3.127638 31.624235 1.5447
2005-01-25 07:55:05 51°16.102 2°54.178 5.6711 3.127638 31.624235 1.5447
2005-01-25 07:55:11 51°16.115 2°54.184 5.672 3.12111 31.553641 1.51099
2005-01-25 07:55:16 51°16.126 2°54.189 5.6752 3.128164 31.635803 1.51099
2005-01-25 07:55:20 51°16.135 2°54.193 5.6739 3.122374 31.571012 1.612118
2005-01-25 07:55:25 51°16.145 2°54.197 5.6665 3.123005 31.577269 1.612118
2005-01-25 07:55:30 51°16.155 2°54.201 5.6677 3.137956 31.743773 1.746956
2005-01-25 07:55:36 51°16.164 2°54.206 5.66 3.137956 31.743773 1.746956
2005-01-25 07:55:41 51°16.172 2°54.212 5.6591 3.113635 31.47085 1.814375
2005-01-25 07:55:45 51°16.179 2°54.217 5.6593 3.116793 31.509402 1.881794
2005-01-25 07:55:51 51°16.186 2°54.225 5.6588 3.125743 31.608706 2.050341
2005-01-25 07:55:56 51°16.193 2°54.233 5.6557 3.125532 31.60635 2.117759
2005-01-25 07:56:01 51°16.197 2°54.24 5.6581 3.137325 31.739142 2.185178
2005-01-25 07:56:05 51°16.201 2°54.245 5.6574 3.137325 31.739142 2.185178
2005-01-25 07:56:11 51°16.206 2°54.252 5.6522 3.138799 31.758903 2.286306
2005-01-25 07:56:16 51°16.21 2°54.258 5.6547 3.123953 31.595162 2.252597
2005-01-25 07:56:21 51°16.214 2°54.264 5.6491 3.142484 31.804249 2.151469
2005-01-25 07:56:25 51°16.216 2°54.268 5.6494 3.136588 31.739031 2.117759
2005-01-25 07:56:31 51°16.22 2°54.273 5.6499 3.117846 31.533308 2.151469
2005-01-25 07:56:36 51°16.222 2°54.277 5.6435 3.117846 31.533308 2.151469
2005-01-25 07:56:40 51°16.224 2°54.281 5.6508 3.133534 31.709723 2.117759
2005-01-25 07:56:45 51°16.227 2°54.285 5.6516 3.131744 31.690493 2.050341
2005-01-25 07:56:51 51°16.229 2°54.288 5.6497 3.134587 31.723141 2.050341
2005-01-25 07:56:56 51°16.229 2°54.29 5.6486 3.136061 31.742907 1.982922
2005-01-25 07:57:01 51°16.23 2°54.29 5.6474 3.127744 31.651382 1.949212
2005-01-25 07:57:06 51°16.23 2°54.29 5.6443 3.127744 31.651382 1.949212
2005-01-25 07:57:11 51°16.229 2°54.29 5.6462 3.124585 31.616828 1.982922
2005-01-25 07:57:16 51°16.229 2°54.288 5.6484 3.131323 31.694723 1.982922
2005-01-25 07:57:21 51°16.229 2°54.289 5.6472 3.129007 31.669593 1.915503
2005-01-25 07:57:25 51°16.229 2°54.287 5.6458 3.133956 31.723392 2.016631
2005-01-25 07:57:31 51°16.228 2°54.285 5.6441 3.128796 31.666422 2.016631
2005-01-25 07:57:36 51°16.228 2°54.283 5.6446 3.128796 31.666422 2.016631
2005-01-25 07:57:41 51°16.228 2°54.282 5.6484 3.135324 31.738724 2.08405
2005-01-25 07:57:45 51°16.227 2°54.28 5.6457 3.132271 31.70615 2.050341
2005-01-25 07:57:51 51°16.227 2°54.278 5.6467 3.126059 31.636579 2.08405
2005-01-25 07:57:56 51°16.226 2°54.275 5.6535 3.132271 31.706964 2.117759
2005-01-25 07:58:00 51°16.226 2°54.273 5.6497 3.131534 31.699522 2.151469
2005-01-25 07:58:06 51°16.225 2°54.27 5.6481 3.131534 31.699522 2.151469
2005-01-25 07:58:10 51°16.224 2°54.267 5.6479 3.135114 31.740438 2.151469
2005-01-25 07:58:16 51°16.224 2°54.264 5.653 3.125954 31.6354 2.151469
2005-01-25 07:58:20 51°16.223 2°54.261 5.6507 3.134166 31.728194 2.117759
2005-01-25 07:58:25 51°16.222 2°54.258 5.6519 3.105001 31.400906 2.117759
2005-01-25 07:58:31 51°16.221 2°54.254 5.6534 3.117741 31.542649 2.117759
2005-01-25 07:58:36 51°16.22 2°54.251 5.6524 3.117741 31.542649 2.117759
2005-01-25 07:58:40 51°16.22 2°54.248 5.6542 3.118373 31.548911 2.117759
2005-01-25 07:58:46 51°16.219 2°54.244 5.6585 3.127638 31.653452 2.050341
2005-01-25 07:58:51 51°16.218 2°54.241 5.6596 3.124374 31.616905 2.117759
2005-01-25 07:58:56 51°16.217 2°54.237 5.6535 3.128165 31.65691 2.151469
2005-01-25 07:59:01 51°16.216 2°54.233 5.6541 3.125427 31.626259 2.151469
2005-01-25 07:59:05 51°16.215 2°54.23 5.6566 3.125427 31.626259 2.151469
2005-01-25 07:59:11 51°16.214 2°54.225 5.6553 3.121742 31.585814 2.117759
2005-01-25 07:59:16 51°16.213 2°54.221 5.6557 3.132797 31.708792 2.117759
2005-01-25 07:59:21 51°16.212 2°54.217 5.6581 3.12648 31.636424 2.218888
2005-01-25 07:59:26 51°16.211 2°54.213 5.6576 3.112687 31.481243 2.218888
2005-01-25 07:59:31 51°16.21 2°54.209 5.6599 3.111003 31.463203 2.387435
2005-01-25 07:59:36 51°16.209 2°54.205 5.6582 3.111003 31.463203 2.387435
2005-01-25 07:59:40 51°16.208 2°54.202 5.657 3.103212 31.376053 2.522272
2005-01-25 07:59:45 51°16.206 2°54.197 5.6612 3.101316 31.35486 2.488563
2005-01-25 07:59:51 51°16.204 2°54.192 5.6587 3.121005 31.573513 2.488563
2005-01-25 07:59:56 51°16.203 2°54.189 5.6588 3.097631 31.310443 2.488563
2005-01-25 08:00:01 51°16.202 2°54.184 5.6558 3.110476 31.454892 2.6234
2005-01-25 08:00:05 51°16.2 2°54.181 5.6582 3.110476 31.454892 2.6234
2005-01-25 08:00:11 51°16.198 2°54.176 5.6554 3.118267 31.540447 2.555982
2005-01-25 08:00:16 51°16.197 2°54.173 5.6569 3.124269 31.608425 2.589691
2005-01-25 08:00:20 51°16.196 2°54.169 5.6566 3.115319 31.506652 2.6234
2005-01-25 08:00:26 51°16.194 2°54.164 5.6579 3.108686 31.430838 2.65711
2005-01-25 08:00:31 51°16.192 2°54.161 5.6541 3.109844 31.445405 2.758238
2005-01-25 08:00:36 51°16.19 2°54.157 5.6563 3.109844 31.445405 2.758238
2005-01-25 08:00:40 51°16.188 2°54.153 5.6564 3.127428 31.642973 2.724529
2005-01-25 08:00:45 51°16.186 2°54.149 5.6587 3.121953 31.581688 2.791947
2005-01-25 08:00:51 51°16.184 2°54.145 5.6587 3.125532 31.62338 2.893076
2005-01-25 08:00:56 51°16.182 2°54.141 5.6568 3.130481 31.678785 2.926785
2005-01-25 08:01:00 51°16.18 2°54.138 5.6601 3.124901 31.616308 2.960494
2005-01-25 08:01:05 51°16.178 2°54.133 5.6577 3.124901 31.616308 2.960494
2005-01-25 08:01:11 51°16.176 2°54.129 5.6537 3.125427 31.622201 3.061623
2005-01-25 08:01:16 51°16.173 2°54.125 5.6612 3.131323 31.688217 3.061623
2005-01-25 08:01:21 51°16.172 2°54.122 5.6603 3.1229 31.593915 3.027913
2005-01-25 08:01:26 51°16.169 2°54.117 5.6605 3.125638 31.622936 3.162751
2005-01-25 08:01:31 51°16.167 2°54.114 5.655 3.115635 31.511803 3.23017
2005-01-25 08:01:36 51°16.165 2°54.11 5.6525 3.115635 31.511803 3.23017
2005-01-25 08:01:40 51°16.163 2°54.107 5.6577 3.124901 31.613875 3.263879
2005-01-25 08:01:45 51°16.161 2°54.103 5.6563 3.127322 31.643418 3.263879
2005-01-25 08:01:50 51°16.159 2°54.1 5.6533 3.123111 31.596272 3.23017
2005-01-25 08:01:56 51°16.157 2°54.095 5.6543 3.111634 31.466233 3.162751
2005-01-25 08:02:01 51°16.155 2°54.092 5.6581 3.127217 31.641428 3.23017
2005-01-25 08:02:05 51°16.153 2°54.089 5.6525 3.127217 31.641428 3.23017
2005-01-25 08:02:09 51°16.151 2°54.085 5.6537 3.128481 31.657198 3.331298
2005-01-25 08:02:16 51°16.148 2°54.08 5.653 3.122163 31.586476 3.297589
2005-01-25 08:02:21 51°16.146 2°54.077 5.6544 3.122058 31.584487 3.297589
2005-01-25 08:02:25 51°16.144 2°54.074 5.6554 3.123321 31.59944 3.297589
2005-01-25 08:02:31 51°16.142 2°54.07 5.6516 3.13027 31.678052 3.23017
2005-01-25 08:02:36 51°16.139 2°54.066 5.6491 3.13027 31.678052 3.23017
2005-01-25 08:02:40 51°16.138 2°54.063 5.6497 3.12111 31.576312 3.331298
2005-01-25 08:02:45 51°16.135 2°54.059 5.6487 3.117952 31.541768 3.297589
2005-01-25 08:02:51 51°16.133 2°54.055 5.6505 3.121216 31.579111 3.263879
2005-01-25 08:02:56 51°16.131 2°54.051 5.65 3.125217 31.62309 3.297589
2005-01-25 08:03:00 51°16.129 2°54.048 5.6494 3.114582 31.504873 3.263879
2005-01-25 08:03:05 51°16.126 2°54.044 5.6494 3.114582 31.504873 3.263879
2005-01-25 08:03:11 51°16.124 2°54.041 5.6475 3.114161 31.500968 3.263879
2005-01-25 08:03:16 51°16.121 2°54.038 5.6501 3.125427 31.628694 3.23017
2005-01-25 08:03:21 51°16.119 2°54.034 5.6477 3.12469 31.621253 3.365007
2005-01-25 08:03:25 51°16.117 2°54.031 5.6495 3.11932 31.560327 3.263879
2005-01-25 08:03:29 51°16.115 2°54.029 5.6485 3.12448 31.618895 3.297589
2005-01-25 08:03:36 51°16.112 2°54.024 5.6493 3.12448 31.618895 3.297589
2005-01-25 08:03:41 51°16.11 2°54.02 5.6512 3.119742 31.565041 3.297589
2005-01-25 08:03:45 51°16.108 2°54.018 5.6504 3.123743 31.611455 3.23017
2005-01-25 08:03:51 51°16.105 2°54.014 5.6465 3.126375 31.641741 3.297589
2005-01-25 08:03:56 51°16.103 2°54.011 5.6478 3.127217 31.651173 3.365007
2005-01-25 08:04:00 51°16.101 2°54.008 5.648 3.117846 31.545447 3.331298
2005-01-25 08:04:05 51°16.099 2°54.004 5.651 3.117846 31.545447 3.331298
2005-01-25 08:04:11 51°16.096 2°54 5.6494 3.131218 31.694357 3.297589
2005-01-25 08:04:16 51°16.094 2°53.997 5.6529 3.127217 31.650361 3.297589
2005-01-25 08:04:20 51°16.092 2°53.994 5.6505 3.119215 31.559959 3.365007
2005-01-25 08:04:25 51°16.09 2°53.991 5.6522 3.1209 31.580438 3.432426
2005-01-25 08:04:31 51°16.087 2°53.987 5.6534 3.129218 31.67439 3.398717
2005-01-25 08:04:36 51°16.085 2°53.984 5.6491 3.129218 31.67439 3.398717
2005-01-25 08:04:40 51°16.083 2°53.981 5.6516 3.107318 31.428431 3.365007
2005-01-25 08:04:45 51°16.08 2°53.977 5.6509 3.121847 31.590236 3.365007
2005-01-25 08:04:51 51°16.078 2°53.974 5.65 3.123321 31.605928 3.331298
2005-01-25 08:04:56 51°16.076 2°53.97 5.6484 3.125006 31.623978 3.331298
2005-01-25 08:05:01 51°16.073 2°53.966 5.65 3.114056 31.501407 3.365007
2005-01-25 08:05:06 51°16.071 2°53.963 5.6465 3.114056 31.501407 3.365007
2005-01-25 08:05:11 51°16.069 2°53.96 5.6468 3.124901 31.621988 3.263879
2005-01-25 08:05:16 51°16.066 2°53.956 5.6475 3.116267 31.526961 3.365007
2005-01-25 08:05:21 51°16.064 2°53.953 5.6501 3.120479 31.574102 3.398717
2005-01-25 08:05:25 51°16.062 2°53.95 5.6471 3.123427 31.607918 3.398717
2005-01-25 08:05:29 51°16.06 2°53.947 5.6497 3.117004 31.536828 3.398717
2005-01-25 08:05:36 51°16.057 2°53.943 5.6492 3.117004 31.536828 3.398717
2005-01-25 08:05:40 51°16.055 2°53.939 5.6488 3.111424 31.475183 3.365007
2005-01-25 08:05:45 51°16.053 2°53.936 5.6469 3.117846 31.547876 3.331298
2005-01-25 08:05:51 51°16.051 2°53.932 5.6472 3.118268 31.552591 3.365007
2005-01-25 08:05:56 51°16.048 2°53.929 5.6472 3.124374 31.620151 3.365007
2005-01-25 08:06:01 51°16.046 2°53.925 5.6465 3.110476 31.463772 3.432426
2005-01-25 08:06:05 51°16.044 2°53.922 5.6454 3.110476 31.463772 3.432426
2005-01-25 08:06:09 51°16.042 2°53.919 5.6469 3.125111 31.628404 3.365007
2005-01-25 08:06:16 51°16.039 2°53.915 5.6484 3.123216 31.607183 3.365007
2005-01-25 08:06:21 51°16.036 2°53.911 5.6488 3.120373 31.575354 3.398717
2005-01-25 08:06:25 51°16.035 2°53.908 5.6473 3.119005 31.560841 3.398717
2005-01-25 08:06:31 51°16.032 2°53.904 5.6465 3.121321 31.585963 3.365007
2005-01-25 08:06:36 51°16.029 2°53.901 5.6478 3.121321 31.585963 3.365007
2005-01-25 08:06:40 51°16.028 2°53.898 5.646 3.128375 31.664957 3.331298
2005-01-25 08:06:46 51°16.025 2°53.895 5.6451 3.127744 31.658694 3.398717
2005-01-25 08:06:51 51°16.022 2°53.89 5.6452 3.121637 31.590311 3.365007
2005-01-25 08:06:56 51°16.02 2°53.887 5.6445 3.110582 31.466565 3.331298
2005-01-25 08:07:00 51°16.018 2°53.884 5.6442 3.127744 31.658694 3.297589
2005-01-25 08:07:06 51°16.016 2°53.881 5.6473 3.127744 31.658694 3.297589
2005-01-25 08:07:11 51°16.013 2°53.877 5.6466 3.123006 31.607259 3.297589
2005-01-25 08:07:16 51°16.011 2°53.874 5.646 3.126375 31.644177 3.331298
2005-01-25 08:07:20 51°16.009 2°53.871 5.6447 3.118689 31.558925 3.331298
2005-01-25 08:07:26 51°16.007 2°53.865 5.6455 3.125006 31.629661 3.263879
2005-01-25 08:07:31 51°16.006 2°53.86 5.6449 3.125006 31.630473 3.23017
2005-01-25 08:07:36 51°16.005 2°53.854 5.6445 3.125006 31.630473 3.23017
2005-01-25 08:07:40 51°16.005 2°53.849 5.6457 3.127428 31.655969 3.263879
2005-01-25 08:07:46 51°16.005 2°53.842 5.6472 3.12627 31.64381 3.263879
2005-01-25 08:07:51 51°16.006 2°53.834 5.6503 3.129218 31.677643 3.297589
2005-01-25 08:07:56 51°16.007 2°53.828 5.654 3.124374 31.62421 3.331298
2005-01-25 08:08:00 51°16.008 2°53.824 5.6562 3.109108 31.4533 3.263879
2005-01-25 08:08:06 51°16.011 2°53.816 5.6567 3.109108 31.4533 3.263879
2005-01-25 08:08:11 51°16.014 2°53.811 5.6584 3.115214 31.52084 3.263879
2005-01-25 08:08:16 51°16.017 2°53.806 5.6569 3.125322 31.63401 3.263879
2005-01-25 08:08:21 51°16.02 2°53.802 5.6573 3.124796 31.627302 3.23017
2005-01-25 08:08:25 51°16.023 2°53.799 5.6567 3.125533 31.634744 3.23017
2005-01-25 08:08:31 51°16.027 2°53.796 5.6496 3.127007 31.647191 3.263879
2005-01-25 08:08:36 51°16.031 2°53.795 5.6464 3.127007 31.647191 3.263879
2005-01-25 08:08:40 51°16.035 2°53.794 5.644 3.125954 31.633777 3.23017
2005-01-25 08:08:46 51°16.042 2°53.796 5.6425 3.111319 31.468352 3.23017
2005-01-25 08:08:51 51°16.048 2°53.8 5.6424 3.121953 31.58574 3.129042
2005-01-25 08:08:56 51°16.053 2°53.804 5.6395 3.127006 31.642318 3.19646
2005-01-25 08:09:00 51°16.057 2°53.81 5.6364 3.124058 31.610124 3.23017
2005-01-25 08:09:05 51°16.063 2°53.82 5.6313 3.124058 31.610124 3.23017
2005-01-25 08:09:11 51°16.068 2°53.832 5.6358 3.110476 31.460542 3.129042
2005-01-25 08:09:16 51°16.071 2°53.843 5.6314 3.130376 31.687363 3.061623
2005-01-25 08:09:21 51°16.074 2°53.855 5.6263 3.120373 31.577786 3.095332
2005-01-25 08:09:26 51°16.078 2°53.868 5.6253 3.129218 31.678456 3.027913
2005-01-25 08:09:31 51°16.083 2°53.881 5.6211 3.124059 31.621484 3.061623
2005-01-25 08:09:36 51°16.088 2°53.893 5.6204 3.124059 31.621484 3.061623
2005-01-25 08:09:41 51°16.095 2°53.908 5.6197 3.118899 31.567765 2.994204
2005-01-25 08:09:45 51°16.1 2°53.917 5.6212 3.123111 31.618989 2.994204
2005-01-25 08:09:51 51°16.107 2°53.933 5.6187 3.122374 31.612357 3.095332
2005-01-25 08:09:56 51°16.113 2°53.944 5.6159 3.122163 31.614058 3.263879
2005-01-25 08:10:01 51°16.12 2°53.959 5.617 3.121321 31.60868 3.398717
2005-01-25 08:10:05 51°16.126 2°53.969 5.6165 3.121321 31.60868 3.398717
2005-01-25 08:10:11 51°16.133 2°53.985 5.6144 3.119952 31.59578 3.432426
2005-01-25 08:10:16 51°16.14 2°53.998 5.6134 3.121005 31.608389 3.533554
2005-01-25 08:10:21 51°16.146 2°54.012 5.6136 3.112582 31.514838 3.600973
2005-01-25 08:10:26 51°16.152 2°54.026 5.6161 3.106792 31.450794 3.668392
2005-01-25 08:10:31 51°16.159 2°54.041 5.6119 3.115636 31.551472 3.668392
2005-01-25 08:10:36 51°16.165 2°54.055 5.6069 3.115636 31.551472 3.668392
2005-01-25 08:10:41 51°16.172 2°54.071 5.609 3.111003 31.500386 3.600973
2005-01-25 08:10:46 51°16.177 2°54.086 5.6038 3.112372 31.517337 3.600973
2005-01-25 08:10:51 51°16.184 2°54.102 5.6021 3.112898 31.524855 3.634683
2005-01-25 08:10:56 51°16.188 2°54.115 5.6071 3.109319 31.484753 3.702101
2005-01-25 08:11:00 51°16.193 2°54.126 5.6035 3.114793 31.546088 3.735811
2005-01-25 08:11:06 51°16.199 2°54.144 5.6021 3.114793 31.546088 3.735811
2005-01-25 08:11:11 51°16.205 2°54.16 5.5984 3.114267 31.541 3.80323
2005-01-25 08:11:16 51°16.209 2°54.171 5.601 3.116057 31.5643 3.702101
2005-01-25 08:11:20 51°16.213 2°54.181 5.6026 3.109424 31.492406 3.76952
2005-01-25 08:11:26 51°16.218 2°54.195 5.5829 3.10416 31.43505 3.76952
2005-01-25 08:11:31 51°16.222 2°54.205 5.5836 3.095632 31.341153 3.702101
2005-01-25 08:11:36 51°16.226 2°54.214 5.5858 3.095632 31.341153 3.702101
2005-01-25 08:11:40 51°16.229 2°54.22 5.5842 3.110582 31.510242 3.80323
2005-01-25 08:11:46 51°16.233 2°54.229 5.59 3.099211 31.384467 3.702101
2005-01-25 08:11:51 51°16.236 2°54.236 5.5952 3.095737 31.34636 3.600973
2005-01-25 08:11:56 51°16.239 2°54.241 5.5966 3.10795 31.481556 3.634683
2005-01-25 08:12:01 51°16.242 2°54.247 5.5993 2.940886 29.6186 3.938067
2005-01-25 08:12:06 51°16.244 2°54.252 5.603 2.940886 29.6186 3.938067
2005-01-25 08:12:11 51°16.245 2°54.257 5.6117 2.852269 28.639334 3.904358
2005-01-25 08:12:16 51°16.246 2°54.262 5.6056 3.003621 30.324036 3.870648
2005-01-25 08:12:21 51°16.246 2°54.267 5.605 2.996568 30.243839 3.904358
2005-01-25 08:12:25 51°16.247 2°54.271 5.6068 2.829854 28.389158 3.870648
2005-01-25 08:12:31 51°16.247 2°54.274 5.6071 2.968147 29.921839 3.836939
2005-01-25 08:12:35 51°16.247 2°54.277 5.6116 2.968147 29.921839 3.836939
2005-01-25 08:12:40 51°16.246 2°54.279 5.609 2.982463 30.078143 3.80323
2005-01-25 08:12:46 51°16.245 2°54.281 5.6115 3.012148 30.405079 3.904358
2005-01-25 08:12:51 51°16.244 2°54.282 5.6096 3.016674 30.453998 3.938067
2005-01-25 08:12:56 51°16.243 2°54.282 5.6016 2.714007 27.102184 3.938067
2005-01-25 08:13:00 51°16.242 2°54.283 5.6114 2.976358 30.00322 3.938067
2005-01-25 08:13:06 51°16.241 2°54.282 5.6157 2.976358 30.00322 3.938067
2005-01-25 08:13:11 51°16.239 2°54.283 5.6147 2.9812 30.056353 3.938067
2005-01-25 08:13:16 51°16.238 2°54.283 5.6167 2.971831 29.952843 3.971777
2005-01-25 08:13:20 51°16.236 2°54.283 5.6166 2.989515 30.148956 4.072905
2005-01-25 08:13:25 51°16.234 2°54.283 5.6155 2.992147 30.177494 4.140324
2005-01-25 08:13:31 51°16.233 2°54.282 5.6113 2.982779 30.07316 4.072905
2005-01-25 08:13:36 51°16.231 2°54.282 5.6143 2.982779 30.07316 4.072905
2005-01-25 08:13:41 51°16.229 2°54.281 5.6063 3.026675 30.561641 4.106614
2005-01-25 08:13:45 51°16.227 2°54.28 5.6161 2.980779 30.048578 4.005486
2005-01-25 08:13:51 51°16.225 2°54.279 5.6169 2.931834 29.502842 4.039195
2005-01-25 08:13:56 51°16.223 2°54.278 5.6215 3.018674 30.468479 4.140324
2005-01-25 08:14:01 51°16.221 2°54.276 5.6124 3.000779 30.268222 4.072905
2005-01-25 08:14:05 51°16.219 2°54.275 5.6203 3.000779 30.268222 4.072905
2005-01-25 08:14:11 51°16.217 2°54.273 5.6157 2.987936 30.127501 4.039195
2005-01-25 08:14:16 51°16.215 2°54.271 5.6191 2.977937 30.017712 4.140324
2005-01-25 08:14:20 51°16.213 2°54.27 5.6118 3.007937 30.351109 4.241452
2005-01-25 08:14:25 51°16.211 2°54.267 5.6167 3.009832 30.37067 4.275161
2005-01-25 08:14:30 51°16.208 2°54.265 5.6104 2.735049 27.327233 4.174033
2005-01-25 08:14:36 51°16.206 2°54.263 5.6061 2.735049 27.327233 4.174033
2005-01-25 08:14:40 51°16.204 2°54.261 5.6023 3.003305 30.297929 4.174033
2005-01-25 08:14:46 51°16.202 2°54.259 5.6102 2.946359 29.663442 4.140324
2005-01-25 08:14:51 51°16.199 2°54.257 5.6054 2.995094 30.205672 4.140324
2005-01-25 08:14:56 51°16.197 2°54.256 5.6031 2.983515 30.076729 3.938067
2005-01-25 08:15:01 51°16.195 2°54.254 5.5994 2.993094 30.185721 3.904358
2005-01-25 08:15:06 51°16.192 2°54.253 5.6035 2.993094 30.185721 3.904358
2005-01-25 08:15:11 51°16.19 2°54.252 5.595 3.000147 30.264294 3.836939
2005-01-25 08:15:16 51°16.188 2°54.25 5.5955 2.997305 30.23418 3.836939
2005-01-25 08:15:21 51°16.186 2°54.249 5.5911 3.011727 30.39804 3.668392
2005-01-25 08:15:26 51°16.184 2°54.248 5.5888 2.996568 30.231406 3.499845
2005-01-25 08:15:31 51°16.182 2°54.246 5.5952 2.988358 30.140705 3.297589
2005-01-25 08:15:36 51°16.18 2°54.245 5.5923 2.988358 30.140705 3.297589
2005-01-25 08:15:41 51°16.179 2°54.243 5.5928 2.705801 27.015488 3.297589
2005-01-25 08:15:45 51°16.176 2°54.242 5.5884 2.892366 29.077645 3.027913
2005-01-25 08:15:51 51°16.175 2°54.24 5.5926 2.898891 29.151512 2.926785
2005-01-25 08:15:56 51°16.172 2°54.239 5.5962 2.992042 30.187953 2.859366
2005-01-25 08:16:00 51°16.171 2°54.237 5.5995 2.962674 29.863226 2.690819
2005-01-25 08:16:05 51°16.169 2°54.235 5.5961 2.962674 29.863226 2.690819
2005-01-25 08:16:11 51°16.167 2°54.233 5.6031 2.957937 29.81052 2.555982
2005-01-25 08:16:16 51°16.166 2°54.232 5.5959 2.998253 30.260282 2.488563
2005-01-25 08:16:21 51°16.164 2°54.23 5.6028 2.992252 30.193403 2.454853
2005-01-25 08:16:26 51°16.163 2°54.228 5.5993 2.991831 30.190263 2.387435
2005-01-25 08:16:31 51°16.162 2°54.226 5.6028 2.981305 30.072202 2.387435
2005-01-25 08:16:36 51°16.16 2°54.225 5.5981 2.981305 30.072202 2.387435
2005-01-25 08:16:41 51°16.159 2°54.222 5.6007 2.704433 27.00601 2.353725
2005-01-25 08:16:46 51°16.157 2°54.222 5.5997 3.009621 30.384713 2.353725
2005-01-25 08:16:51 51°16.156 2°54.22 5.6136 2.992147 30.186799 2.252597
2005-01-25 08:16:56 51°16.154 2°54.218 5.5952 2.992884 30.19501 2.387435
2005-01-25 08:17:01 51°16.153 2°54.215 5.6338 2.991621 30.180935 2.353725
2005-01-25 08:17:06 51°16.152 2°54.215 5.6213 2.991621 30.180935 2.353725
2005-01-25 08:17:11 51°16.151 2°54.211 5.6227 3.012148 30.409767 2.320016
2005-01-25 08:17:16 51°16.149 2°54.21 5.622 2.987937 30.139113 2.252597
2005-01-25 08:17:21 51°16.148 2°54.206 5.6241 3.039518 30.715241 2.252597
2005-01-25 08:17:25 51°16.146 2°54.204 5.6107 3.012569 30.415245 2.286306
2005-01-25 08:17:31 51°16.145 2°54.201 5.6114 3.018043 30.47396 2.218888
2005-01-25 08:17:36 51°16.143 2°54.197 5.6032 3.018043 30.47396 2.218888
2005-01-25 08:17:40 51°16.142 2°54.194 5.5974 3.025306 30.547157 2.353725
2005-01-25 08:17:46 51°16.14 2°54.191 5.6028 3.001937 30.284235 2.218888
2005-01-25 08:17:51 51°16.139 2°54.185 5.6138 2.9732 29.964224 2.218888
2005-01-25 08:17:56 51°16.137 2°54.182 5.6113 3.018358 30.467305 2.286306
2005-01-25 08:18:01 51°16.135 2°54.177 5.6014 2.988884 30.14347 2.286306
2005-01-25 08:18:05 51°16.134 2°54.174 5.6049 2.988884 30.14347 2.286306
2005-01-25 08:18:11 51°16.132 2°54.169 5.608 2.998779 30.256818 2.252597
2005-01-25 08:18:16 51°16.129 2°54.165 5.6067 3.005832 30.339332 2.286306
2005-01-25 08:18:21 51°16.127 2°54.161 5.6042 3.032465 30.636483 2.286306
2005-01-25 08:18:25 51°16.126 2°54.157 5.6164 3.003621 30.313127 2.320016
2005-01-25 08:18:31 51°16.123 2°54.152 5.6198 3.016148 30.450474 2.320016
2005-01-25 08:18:36 51°16.121 2°54.147 5.6357 3.016148 30.450474 2.320016
2005-01-25 08:18:40 51°16.119 2°54.144 5.643 2.981831 30.072655 2.320016
2005-01-25 08:18:46 51°16.116 2°54.139 5.6457 3.012674 30.414856 2.286306
2005-01-25 08:18:51 51°16.114 2°54.135 5.6444 3.014779 30.437557 2.320016
2005-01-25 08:18:56 51°16.112 2°54.131 5.6478 2.992779 30.192285 2.387435
2005-01-25 08:19:00 51°16.11 2°54.126 5.6684 3.029938 30.605131 2.387435
2005-01-25 08:19:05 51°16.109 2°54.122 5.6609 3.029938 30.605131 2.387435
2005-01-25 08:19:11 51°16.107 2°54.116 5.6504 3.012148 30.403516 2.454853
2005-01-25 08:19:16 51°16.107 2°54.111 5.6374 3.006884 30.3347 2.454853
2005-01-25 08:19:21 51°16.106 2°54.105 5.6631 3.010674 30.369138 2.488563
2005-01-25 08:19:26 51°16.106 2°54.1 5.6305 2.958779 29.785446 2.488563
2005-01-25 08:19:31 51°16.106 2°54.092 5.6331 3.043518 30.726757 2.454853
2005-01-25 08:19:36 51°16.106 2°54.086 5.628 3.043518 30.726757 2.454853
2005-01-25 08:19:41 51°16.106 2°54.078 5.6291 3.008147 30.328527 2.421144
2005-01-25 08:19:45 51°16.106 2°54.071 5.6272 3.002252 30.264433 2.555982
2005-01-25 08:19:51 51°16.106 2°54.06 5.6287 2.99741 30.215949 2.488563
2005-01-25 08:19:56 51°16.106 2°54.052 5.6227 3.004779 30.298788 2.555982
2005-01-25 08:20:01 51°16.106 2°54.042 5.6304 2.990463 30.140153 2.555982
2005-01-25 08:20:06 51°16.105 2°54.031 5.6346 2.990463 30.140153 2.555982
2005-01-25 08:20:11 51°16.103 2°54.018 5.6322 3.012042 30.381268 2.690819
2005-01-25 08:20:16 51°16.102 2°54.006 5.6304 3.03057 30.593315 2.65711
2005-01-25 08:20:21 51°16.1 2°53.993 5.6196 2.973094 29.954589 2.791947
2005-01-25 08:20:25 51°16.098 2°53.98 5.6273 3.038255 30.682209 2.825657
2005-01-25 08:20:31 51°16.094 2°53.962 5.6337 3.001095 30.270963 2.893076
2005-01-25 08:20:36 51°16.092 2°53.947 5.6299 3.001095 30.270963 2.893076
2005-01-25 08:20:40 51°16.089 2°53.932 5.6245 3.011516 30.384764 2.893076
2005-01-25 08:20:45 51°16.085 2°53.911 5.6266 3.018569 30.461046 2.926785
2005-01-25 08:20:49 51°16.083 2°53.895 5.6265 3.012253 30.391416 3.061623
2005-01-25 08:20:56 51°16.078 2°53.866 5.631 3.036149 30.659499 3.23017
2005-01-25 08:21:00 51°16.073 2°53.845 5.6319 3.007832 30.34292 3.19646
2005-01-25 08:21:05 51°16.07 2°53.821 5.6195 3.007832 30.34292 3.19646
2005-01-25 08:21:11 51°16.065 2°53.79 5.6269 3.003095 30.290914 3.365007
2005-01-25 08:21:16 51°16.062 2°53.766 5.6235 2.966674 29.887006 3.600973
2005-01-25 08:21:21 51°16.058 2°53.735 5.6378 3.017832 30.456741 3.668392
2005-01-25 08:21:25 51°16.056 2°53.712 5.6304 2.94457 29.641275 3.80323
2005-01-25 08:21:31 51°16.052 2°53.681 5.6301 2.942254 29.614027 3.870648
2005-01-25 08:21:36 51°16.049 2°53.651 5.6668 2.942254 29.614027 3.870648
2005-01-25 08:21:40 51°16.047 2°53.627 5.6325 2.997831 30.234608 3.938067
2005-01-25 08:21:45 51°16.044 2°53.593 5.6234 2.944043 29.635428 3.938067
2005-01-25 08:21:51 51°16.041 2°53.555 5.6207 3.008253 30.349172 3.904358
2005-01-25 08:21:56 51°16.04 2°53.527 5.6135 3.000042 30.254573 4.039195
2005-01-25 08:22:00 51°16.038 2°53.498 5.615 2.9672 29.888255 4.005486
2005-01-25 08:22:06 51°16.036 2°53.462 5.618 2.9672 29.888255 4.005486
2005-01-25 08:22:11 51°16.034 2°53.427 5.6076 2.943201 29.618467 3.904358
2005-01-25 08:22:16 51°16.033 2°53.398 5.6215 3.000358 30.250323 3.836939
2005-01-25 08:22:20 51°16.034 2°53.369 5.6258 2.994463 30.188558 3.76952
2005-01-25 08:22:25 51°16.036 2°53.337 5.6304 3.004674 30.308508 3.668392
2005-01-25 08:22:31 51°16.04 2°53.303 5.6254 3.002884 30.293236 3.533554
2005-01-25 08:22:36 51°16.045 2°53.272 5.6369 3.002884 30.293236 3.533554
2005-01-25 08:22:41 51°16.05 2°53.242 5.6566 3.014042 30.419957 3.533554
2005-01-25 08:22:45 51°16.056 2°53.215 5.6443 2.923203 29.412302 3.297589
2005-01-25 08:22:50 51°16.063 2°53.19 5.6521 3.018148 30.466522 3.263879
2005-01-25 08:22:56 51°16.074 2°53.157 5.6529 2.986252 30.106427 3.027913
2005-01-25 08:23:01 51°16.085 2°53.13 5.6711 3.0152 30.426617 2.825657
2005-01-25 08:23:05 51°16.094 2°53.111 5.6874 3.0152 30.426617 2.825657
2005-01-25 08:23:11 51°16.109 2°53.083 5.7187 3.011621 30.383596 2.690819
2005-01-25 08:23:16 51°16.119 2°53.063 5.7317 2.998884 30.23624 2.589691
2005-01-25 08:23:21 51°16.134 2°53.042 5.753 2.9532 29.720405 2.454853
2005-01-25 08:23:25 51°16.146 2°53.027 5.7701 3.032675 30.600301 2.421144
2005-01-25 08:23:31 51°16.162 2°53.008 5.7783 3.035728 30.629628 2.488563
2005-01-25 08:23:36 51°16.177 2°52.993 5.7744 3.035728 30.629628 2.488563
2005-01-25 08:23:41 51°16.194 2°52.977 5.7955 2.974989 29.944915 2.218888
2005-01-25 08:23:45 51°16.206 2°52.965 5.8047 3.02499 30.48412 2.185178
2005-01-25 08:23:51 51°16.223 2°52.949 5.8066 3.04457 30.681801 2.050341
2005-01-25 08:23:56 51°16.239 2°52.937 5.8031 3.044149 30.659046 2.185178
2005-01-25 08:24:01 51°16.255 2°52.925 5.8043 3.046465 30.663631 2.117759
2005-01-25 08:24:06 51°16.271 2°52.914 5.8195 3.046465 30.663631 2.117759
2005-01-25 08:24:11 51°16.287 2°52.903 5.8164 3.024252 30.404992 2.151469
2005-01-25 08:24:16 51°16.304 2°52.893 5.838 3.046359 30.645212 2.151469
2005-01-25 08:24:21 51°16.322 2°52.882 5.81 3.045938 30.629567 2.117759
2005-01-25 08:24:26 51°16.338 2°52.873 5.816 3.039306 30.54572 2.185178
2005-01-25 08:24:31 51°16.355 2°52.864 5.808 3.053834 30.703995 2.185178
2005-01-25 08:24:36 51°16.371 2°52.857 5.822 3.053834 30.703995 2.185178
2005-01-25 08:24:40 51°16.384 2°52.849 5.8194 3.061098 30.780806 2.252597
2005-01-25 08:24:45 51°16.402 2°52.84 5.8155 3.079943 30.980878 2.286306
2005-01-25 08:24:51 51°16.422 2°52.83 5.8234 2.654567 26.292047 2.353725
2005-01-25 08:24:56 51°16.437 2°52.822 5.8114 3.058887 30.742883 2.286306
2005-01-25 08:25:01 51°16.454 2°52.814 5.8181 3.078995 30.969549 2.320016
2005-01-25 08:25:05 51°16.469 2°52.807 5.8113 3.078995 30.969549 2.320016
2005-01-25 08:25:11 51°16.489 2°52.798 5.8195 3.050044 30.648571 2.286306
2005-01-25 08:25:16 51°16.504 2°52.791 5.8227 3.084154 31.023761 2.286306
2005-01-25 08:25:20 51°16.519 2°52.784 5.8175 3.054044 30.687521 2.387435
2005-01-25 08:25:26 51°16.537 2°52.775 5.8279 3.028778 30.405524 2.252597
2005-01-25 08:25:31 51°16.554 2°52.767 5.8068 3.063098 30.784956 2.218888
2005-01-25 08:25:36 51°16.571 2°52.76 5.7924 3.063098 30.784956 2.218888
2005-01-25 08:25:40 51°16.586 2°52.753 5.7817 3.031936 30.439782 2.252597
2005-01-25 08:25:45 51°16.603 2°52.745 5.7893 3.068888 30.850871 2.286306
2005-01-25 08:25:51 51°16.621 2°52.736 5.7833 3.072889 30.896126 2.353725
2005-01-25 08:25:56 51°16.64 2°52.728 5.7725 3.053412 30.681289 2.320016
2005-01-25 08:26:00 51°16.653 2°52.721 5.784 3.052991 30.675046 2.286306
2005-01-25 08:26:05 51°16.67 2°52.713 5.787 3.052991 30.675046 2.286306
2005-01-25 08:26:10 51°16.687 2°52.705 5.7906 2.830799 28.226371 2.320016
2005-01-25 08:26:16 51°16.705 2°52.696 5.8071 3.089313 31.094647 2.320016
2005-01-25 08:26:20 51°16.718 2°52.69 5.7744 3.058887 30.76409 2.286306
2005-01-25 08:26:25 51°16.736 2°52.681 5.7833 3.055518 30.731351 2.218888
2005-01-25 08:26:30 51°16.751 2°52.673 5.7911 3.014041 30.275333 2.185178
2005-01-25 08:26:36 51°16.771 2°52.664 5.7739 3.014041 30.275333 2.185178
2005-01-25 08:26:41 51°16.787 2°52.656 5.781 3.075521 30.959374 2.151469
2005-01-25 08:26:46 51°16.804 2°52.649 5.7756 3.072257 30.919891 2.117759
2005-01-25 08:26:51 51°16.821 2°52.64 5.7845 2.610387 25.833142 2.050341
2005-01-25 08:26:56 51°16.836 2°52.633 5.7862 3.027515 30.420244 2.117759
2005-01-25 08:27:01 51°16.854 2°52.625 5.7886 3.066993 30.85896 2.151469
2005-01-25 08:27:05 51°16.867 2°52.619 5.7759 3.066993 30.85896 2.151469
2005-01-25 08:27:11 51°16.887 2°52.609 5.7821 3.038253 30.542611 2.151469
2005-01-25 08:27:16 51°16.902 2°52.602 5.7813 3.075416 30.959785 2.117759
2005-01-25 08:27:20 51°16.914 2°52.595 5.8021 3.061203 30.802433 2.185178
2005-01-25 08:27:26 51°16.935 2°52.586 5.8022 3.026357 30.412827 2.117759
2005-01-25 08:27:31 51°16.953 2°52.578 5.7959 2.873315 28.716058 2.218888
2005-01-25 08:27:36 51°16.968 2°52.571 5.7834 2.873315 28.716058 2.218888
2005-01-25 08:27:41 51°16.986 2°52.563 5.8025 3.067204 30.861302 2.08405
2005-01-25 08:27:46 51°17.002 2°52.556 5.7961 3.064572 30.832028 2.117759
2005-01-25 08:27:51 51°17.018 2°52.549 5.8036 3.044464 30.608494 2.286306
2005-01-25 08:27:56 51°17.034 2°52.541 5.7982 2.658459 26.357972 2.353725
2005-01-25 08:28:01 51°17.052 2°52.533 5.7979 3.071415 30.901833 2.320016
2005-01-25 08:28:06 51°17.067 2°52.526 5.8134 3.071415 30.901833 2.320016
2005-01-25 08:28:11 51°17.085 2°52.517 5.7986 3.021936 30.353654 2.454853
2005-01-25 08:28:16 51°17.1 2°52.51 5.8075 3.069731 30.883885 2.589691
2005-01-25 08:28:21 51°17.116 2°52.502 5.8264 3.066362 30.84484 2.555982
2005-01-25 08:28:25 51°17.131 2°52.495 5.8435 3.064256 30.820639 2.589691
2005-01-25 08:28:31 51°17.149 2°52.488 5.8268 3.037411 30.523115 2.589691
2005-01-25 08:28:36 51°17.166 2°52.479 5.8125 3.037411 30.523115 2.589691
2005-01-25 08:28:41 51°17.182 2°52.471 5.8156 3.062466 30.798379 2.65711
2005-01-25 08:28:45 51°17.197 2°52.464 5.8048 3.043727 30.590926 2.724529
2005-01-25 08:28:50 51°17.212 2°52.457 5.8081 3.056887 30.735571 2.825657
2005-01-25 08:28:56 51°17.232 2°52.447 5.8116 3.034358 30.477536 2.859366
2005-01-25 08:29:01 51°17.248 2°52.438 5.8095 3.054149 30.68399 2.926785
2005-01-25 08:29:06 51°17.265 2°52.429 5.7966 3.054149 30.68399 2.926785
2005-01-25 08:29:11 51°17.283 2°52.418 5.795 3.047096 30.60802 3.027913
2005-01-25 08:29:16 51°17.297 2°52.408 5.8028 3.039516 30.528561 3.23017
2005-01-25 08:29:21 51°17.314 2°52.395 5.8068 3.048254 30.630259 3.162751
2005-01-25 08:29:25 51°17.327 2°52.386 5.7905 3.065835 30.82796 3.19646
2005-01-25 08:29:31 51°17.346 2°52.37 5.8021 3.054465 30.698468 3.263879
2005-01-25 08:29:36 51°17.36 2°52.358 5.7964 3.054465 30.698468 3.263879
2005-01-25 08:29:40 51°17.372 2°52.348 5.7881 3.039516 30.537136 3.23017
2005-01-25 08:29:45 51°17.389 2°52.333 5.8001 3.04078 30.557406 3.19646
2005-01-25 08:29:51 51°17.406 2°52.317 5.8098 2.745779 27.306545 3.162751
2005-01-25 08:29:56 51°17.421 2°52.303 5.7776 3.016778 30.292547 3.162751
2005-01-25 08:30:01 51°17.436 2°52.288 5.7909 3.054781 30.712956 3.095332
2005-01-25 08:30:06 51°17.451 2°52.273 5.7895 3.054781 30.712956 3.095332
2005-01-25 08:30:11 51°17.466 2°52.256 5.7858 3.016567 30.289438 2.960494
2005-01-25 08:30:16 51°17.48 2°52.24 5.7994 3.058466 30.757051 2.926785
2005-01-25 08:30:21 51°17.496 2°52.222 5.798 3.058992 30.758188 2.893076
2005-01-25 08:30:25 51°17.508 2°52.209 5.7912 2.998566 30.084461 2.960494
2005-01-25 08:30:31 51°17.524 2°52.191 5.7988 3.051412 30.677871 2.893076
2005-01-25 08:30:36 51°17.538 2°52.174 5.776 3.051412 30.677871 2.893076
2005-01-25 08:30:41 51°17.554 2°52.155 5.7941 3.050675 30.675168 2.926785
2005-01-25 08:30:45 51°17.566 2°52.142 5.7751 3.041411 30.571449 2.926785
2005-01-25 08:30:51 51°17.584 2°52.123 5.8 3.014462 30.271497 2.859366
2005-01-25 08:30:56 51°17.596 2°52.108 5.7886 3.055834 30.727011 2.893076
2005-01-25 08:31:00 51°17.61 2°52.093 5.7872 2.367372 23.202745 2.994204
2005-01-25 08:31:05 51°17.624 2°52.076 5.8077 2.367372 23.202745 2.994204
2005-01-25 08:31:11 51°17.642 2°52.056 5.772 3.054781 30.716879 3.095332
2005-01-25 08:31:16 51°17.655 2°52.04 5.7921 3.01162 30.243057 3.23017
2005-01-25 08:31:21 51°17.668 2°52.023 5.79 3.04657 30.632673 3.567264
2005-01-25 08:31:25 51°17.681 2°52.007 5.7714 3.046254 30.631511 3.600973
2005-01-25 08:31:31 51°17.697 2°51.988 5.7577 3.072994 30.926511 3.567264
2005-01-25 08:31:36 51°17.711 2°51.971 5.7691 3.072994 30.926511 3.567264
2005-01-25 08:31:40 51°17.722 2°51.958 5.7698 3.004777 30.165621 3.634683
2005-01-25 08:31:46 51°17.739 2°51.936 5.7748 3.069731 30.886253 3.533554
2005-01-25 08:31:51 51°17.755 2°51.918 5.7596 3.027305 30.421015 3.466136
2005-01-25 08:31:56 51°17.768 2°51.903 5.754 3.025726 30.40426 3.398717
2005-01-25 08:32:01 51°17.781 2°51.888 5.7837 3.058466 30.771202 3.499845
2005-01-25 08:32:05 51°17.795 2°51.873 5.7666 3.058466 30.771202 3.499845
2005-01-25 08:32:11 51°17.81 2°51.856 5.7616 3.04857 30.667441 3.466136
2005-01-25 08:32:16 51°17.825 2°51.839 5.7548 3.028147 30.441257 3.533554
2005-01-25 08:32:21 51°17.841 2°51.822 5.7444 3.02741 30.430738 3.499845
2005-01-25 08:32:25 51°17.853 2°51.809 5.747 3.039411 30.567975 3.600973
2005-01-25 08:32:31 51°17.869 2°51.79 5.7495 3.056571 30.761922 3.432426
2005-01-25 08:32:36 51°17.883 2°51.774 5.7526 3.056571 30.761922 3.432426
2005-01-25 08:32:40 51°17.895 2°51.761 5.7459 3.045728 30.636623 3.398717
2005-01-25 08:32:45 51°17.911 2°51.742 5.7551 3.040043 30.572651 3.297589
2005-01-25 08:32:51 51°17.926 2°51.723 5.7454 2.501219 24.664786 3.263879
2005-01-25 08:32:56 51°17.941 2°51.705 5.7602 3.019831 30.358212 3.297589
2005-01-25 08:33:01 51°17.957 2°51.688 5.7621 3.008251 30.235047 3.297589
2005-01-25 08:33:06 51°17.97 2°51.672 5.7562 3.008251 30.235047 3.297589
2005-01-25 08:33:11 51°17.986 2°51.654 5.7464 3.036253 30.547716 3.263879
2005-01-25 08:33:16 51°17.999 2°51.639 5.7346 3.021726 30.389361 3.331298
2005-01-25 08:33:20 51°18.011 2°51.625 5.7439 2.46452 24.280359 3.263879
2005-01-25 08:33:25 51°18.027 2°51.606 5.737 3.002251 30.170752 3.23017
2005-01-25 08:33:30 51°18.041 2°51.59 5.7446 3.035201 30.53523 3.19646
2005-01-25 08:33:36 51°18.057 2°51.571 5.7438 3.035201 30.53523 3.19646
2005-01-25 08:33:41 51°18.073 2°51.553 5.7381 3.052465 30.724107 3.162751
2005-01-25 08:33:46 51°18.088 2°51.537 5.7362 3.02741 30.450198 3.129042
2005-01-25 08:33:51 51°18.104 2°51.519 5.7289 2.193741 21.376507 3.162751
2005-01-25 08:33:56 51°18.117 2°51.504 5.7542 2.404168 23.633291 3.095332
2005-01-25 08:34:01 51°18.132 2°51.488 5.7282 2.324798 22.780891 3.162751
2005-01-25 08:34:06 51°18.147 2°51.471 5.7274 2.324798 22.780891 3.162751
2005-01-25 08:34:11 51°18.162 2°51.454 5.7287 3.046991 30.67498 3.19646
2005-01-25 08:34:16 51°18.177 2°51.437 5.7399 3.062046 30.843339 3.19646
2005-01-25 08:34:20 51°18.188 2°51.423 5.7401 3.018989 30.365942 3.162751
2005-01-25 08:34:25 51°18.204 2°51.404 5.7488 3.041307 30.618003 3.23017
2005-01-25 08:34:31 51°18.22 2°51.384 5.7642 3.018568 30.363594 3.297589
2005-01-25 08:34:36 51°18.235 2°51.366 5.7583 3.018568 30.363594 3.297589
2005-01-25 08:34:40 51°18.247 2°51.352 5.7454 2.32606 22.800839 3.23017
2005-01-25 08:34:46 51°18.265 2°51.331 5.7556 3.020884 30.397112 3.297589
2005-01-25 08:34:51 51°18.279 2°51.314 5.7422 3.072574 30.971694 3.297589
2005-01-25 08:34:56 51°18.294 2°51.297 5.7415 3.031727 30.513003 3.23017
2005-01-25 08:35:00 51°18.307 2°51.282 5.742 3.016778 30.341377 3.331298
2005-01-25 08:35:05 51°18.322 2°51.264 5.7382 3.016778 30.341377 3.331298
2005-01-25 08:35:11 51°18.34 2°51.242 5.7393 3.051413 30.721039 3.297589
2005-01-25 08:35:16 51°18.353 2°51.225 5.7516 3.034674 30.531722 3.263879
2005-01-25 08:35:21 51°18.366 2°51.208 5.7477 2.93499 29.427595 3.19646
2005-01-25 08:35:25 51°18.379 2°51.191 5.7657 3.040569 30.600406 3.162751
2005-01-25 08:35:29 51°18.39 2°51.177 5.7635 3.03099 30.497002 2.893076
2005-01-25 08:35:36 51°18.409 2°51.152 5.7672 3.03099 30.497002 2.893076
2005-01-25 08:35:41 51°18.422 2°51.133 5.7656 3.052992 30.743332 2.758238
2005-01-25 08:35:45 51°18.434 2°51.113 5.7546 3.066467 30.894161 2.555982
2005-01-25 08:35:51 51°18.449 2°51.087 5.7803 3.021515 30.391687 2.555982
2005-01-25 08:35:56 51°18.46 2°51.069 5.7832 3.051518 30.72221 2.387435
2005-01-25 08:36:01 51°18.473 2°51.052 5.7885 3.072363 30.948748 2.320016
2005-01-25 08:36:06 51°18.484 2°51.041 5.7872 3.072363 30.948748 2.320016
2005-01-25 08:36:11 51°18.496 2°51.033 5.7845 3.037516 30.55629 2.387435
2005-01-25 08:36:16 51°18.504 2°51.027 5.7784 2.339094 22.923247 2.353725
2005-01-25 08:36:21 51°18.513 2°51.022 5.8022 2.902047 29.054443 2.353725
2005-01-25 08:36:26 51°18.521 2°51.017 5.7797 3.020673 30.362907 2.185178
2005-01-25 08:36:29 51°18.525 2°51.015 5.7867 3.042254 30.595658 2.286306
2005-01-25 08:36:36 51°18.533 2°51.011 5.7599 3.042254 30.595658 2.286306
2005-01-25 08:36:41 51°18.538 2°51.008 5.7695 3.049833 30.67051 2.286306
2005-01-25 08:36:45 51°18.541 2°51.007 5.7604 2.265307 22.112902 2.218888
2005-01-25 08:36:51 51°18.544 2°51.006 5.7641 3.018567 30.320921 2.151469
2005-01-25 08:36:56 51°18.545 2°51.005 5.7527 3.005619 30.178815 2.050341
2005-01-25 08:37:01 51°18.547 2°51.003 5.7532 3.058676 30.771184 2.016631
2005-01-25 08:37:05 51°18.548 2°51.002 5.7518 3.058676 30.771184 2.016631
2005-01-25 08:37:11 51°18.549 2°51 5.7496 3.032042 30.478294 1.982922
2005-01-25 08:37:16 51°18.55 2°50.999 5.7613 2.637315 26.139569 1.949212
2005-01-25 08:37:21 51°18.55 2°50.997 5.7646 2.814384 28.08044 1.949212
2005-01-25 08:37:26 51°18.551 2°50.995 5.7599 3.016567 30.315767 1.814375
2005-01-25 08:37:31 51°18.551 2°50.993 5.7473 3.041412 30.601161 1.780665
2005-01-25 08:37:36 51°18.551 2°50.992 5.7487 3.041412 30.601161 1.780665
2005-01-25 08:37:40 51°18.552 2°50.991 5.7513 2.937201 29.446029 1.746956
2005-01-25 08:37:45 51°18.552 2°50.988 5.7549 3.059308 30.802615 1.679537
2005-01-25 08:37:50 51°18.552 2°50.986 5.7569 2.243132 21.898481 1.679537
2005-01-25 08:37:56 51°18.552 2°50.984 5.7437 3.056045 30.763146 1.612118
2005-01-25 08:38:01 51°18.551 2°50.982 5.763 3.055729 30.759632 1.578409
2005-01-25 08:38:05 51°18.551 2°50.98 5.7649 3.055729 30.759632 1.578409
2005-01-25 08:38:11 51°18.55 2°50.977 5.7722 3.033095 30.512605 1.578409
2005-01-25 08:38:16 51°18.55 2°50.974 5.7745 2.408689 23.67657 1.477281
2005-01-25 08:38:20 51°18.549 2°50.972 5.7598 3.034569 30.528208 1.477281
2005-01-25 08:38:26 51°18.548 2°50.97 5.7587 2.160222 21.01697 1.51099
2005-01-25 08:38:31 51°18.547 2°50.967 5.7619 3.05236 30.72608 1.477281
2005-01-25 08:38:36 51°18.547 2°50.964 5.7528 3.05236 30.72608 1.477281
2005-01-25 08:38:40 51°18.546 2°50.961 5.7562 3.082996 31.064819 1.51099
2005-01-25 08:38:45 51°18.544 2°50.959 5.7529 3.02162 30.381974 1.477281
2005-01-25 08:38:51 51°18.543 2°50.955 5.7658 2.927833 29.337908 1.443571
2005-01-25 08:38:56 51°18.542 2°50.952 5.7667 3.047833 30.668657 1.409862
2005-01-25 08:39:00 51°18.54 2°50.949 5.7691 3.051728 30.713552 1.443571
2005-01-25 08:39:05 51°18.539 2°50.945 5.7736 3.051728 30.713552 1.443571
2005-01-25 08:39:10 51°18.537 2°50.942 5.7719 3.037727 30.558631 1.376153
2005-01-25 08:39:16 51°18.535 2°50.938 5.767 2.971409 29.825595 1.342443
2005-01-25 08:39:21 51°18.534 2°50.934 5.7565 2.982146 29.943852 1.342443
2005-01-25 08:39:25 51°18.532 2°50.931 5.7561 2.646783 26.250802 1.376153
2005-01-25 08:39:29 51°18.531 2°50.928 5.7528 2.979093 29.904653 1.308734
2005-01-25 08:39:36 51°18.528 2°50.923 5.7529 2.979093 29.904653 1.308734
2005-01-25 08:39:41 51°18.526 2°50.919 5.7492 3.03099 30.480624 1.342443
2005-01-25 08:39:45 51°18.524 2°50.916 5.7569 3.060361 30.804876 1.342443
2005-01-25 08:39:51 51°18.522 2°50.911 5.7646 3.02541 30.418633 1.308734
2005-01-25 08:39:56 51°18.52 2°50.907 5.7628 3.041622 30.601937 1.409862
2005-01-25 08:40:01 51°18.518 2°50.902 5.7639 2.41321 23.723478 1.409862
2005-01-25 08:40:06 51°18.516 2°50.898 5.7572 2.41321 23.723478 1.409862
2005-01-25 08:40:11 51°18.514 2°50.894 5.7559 3.045938 30.653854 1.275024
2005-01-25 08:40:16 51°18.511 2°50.889 5.7568 3.070573 30.929607 1.308734
2005-01-25 08:40:21 51°18.509 2°50.885 5.7581 3.025937 30.433041 1.241315
2005-01-25 08:40:25 51°18.507 2°50.88 5.7674 3.008041 30.230389 1.275024
2005-01-25 08:40:31 51°18.504 2°50.875 5.7583 3.068257 30.898282 1.308734
2005-01-25 08:40:36 51°18.502 2°50.871 5.7619 3.068257 30.898282 1.308734
2005-01-25 08:40:41 51°18.499 2°50.866 5.7583 3.015094 30.305603 1.275024
2005-01-25 08:40:45 51°18.497 2°50.862 5.7662 3.03878 30.570334 1.308734
2005-01-25 08:40:51 51°18.494 2°50.857 5.7542 3.052887 30.728792 1.342443
2005-01-25 08:40:56 51°18.492 2°50.852 5.7597 3.080154 31.032355 1.275024
2005-01-25 08:41:01 51°18.489 2°50.848 5.7626 2.934885 29.41665 1.308734
2005-01-25 08:41:05 51°18.486 2°50.843 5.7596 2.934885 29.41665 1.308734
2005-01-25 08:41:11 51°18.483 2°50.838 5.7637 3.0332 30.505972 1.376153
2005-01-25 08:41:16 51°18.481 2°50.834 5.7621 3.031726 30.492712 1.443571
2005-01-25 08:41:20 51°18.479 2°50.831 5.7708 3.008357 30.232349 1.308734
2005-01-25 08:41:26 51°18.476 2°50.826 5.7698 2.129332 20.683979 1.308734
2005-01-25 08:41:31 51°18.475 2°50.821 5.7604 2.556221 25.267376 1.376153
2005-01-25 08:41:36 51°18.474 2°50.817 5.7606 2.556221 25.267376 1.376153
2005-01-25 08:41:40 51°18.473 2°50.813 5.7703 3.090155 31.143007 1.376153
2005-01-25 08:41:45 51°18.473 2°50.808 5.769 3.038148 30.564875 1.308734
2005-01-25 08:41:51 51°18.474 2°50.803 5.7679 3.050886 30.704969 1.342443
2005-01-25 08:41:56 51°18.476 2°50.799 5.7675 3.044464 30.631977 1.342443
2005-01-25 08:42:00 51°18.478 2°50.796 5.7612 3.080048 31.027214 1.308734
2005-01-25 08:42:05 51°18.48 2°50.792 5.7693 3.080048 31.027214 1.308734
2005-01-25 08:42:10 51°18.483 2°50.79 5.7669 2.987725 30.001885 1.308734
2005-01-25 08:42:16 51°18.487 2°50.789 5.7636 3.056992 30.771328 1.275024
2005-01-25 08:42:21 51°18.49 2°50.788 5.7598 3.045096 30.635084 1.308734
2005-01-25 08:42:25 51°18.493 2°50.79 5.7683 3.013409 30.282254 1.342443
2005-01-25 08:42:31 51°18.497 2°50.792 5.7827 3.083101 31.058841 1.308734
2005-01-25 08:42:36 51°18.501 2°50.795 5.7654 3.083101 31.058841 1.308734
2005-01-25 08:42:41 51°18.505 2°50.8 5.7569 3.037622 30.552772 1.308734
2005-01-25 08:42:46 51°18.51 2°50.806 5.7573 2.971725 29.819181 1.275024
2005-01-25 08:42:51 51°18.516 2°50.815 5.7661 3.0312 30.479067 1.342443
2005-01-25 08:42:56 51°18.522 2°50.824 5.7772 3.080469 31.030317 1.308734
2005-01-25 08:43:01 51°18.528 2°50.836 5.768 2.95762 29.66524 1.409862
2005-01-25 08:43:06 51°18.536 2°50.848 5.7597 2.95762 29.66524 1.409862
2005-01-25 08:43:11 51°18.544 2°50.862 5.7603 3.031516 30.482576 1.342443
2005-01-25 08:43:16 51°18.552 2°50.876 5.7705 3.064677 30.854488 1.207606
2005-01-25 08:43:20 51°18.559 2°50.888 5.7724 3.034885 30.527034 1.241315
2005-01-25 08:43:26 51°18.569 2°50.908 5.7735 3.058361 30.787344 1.275024
2005-01-25 08:43:31 51°18.578 2°50.924 5.7706 3.031305 30.481795 1.140187
2005-01-25 08:43:36 51°18.587 2°50.943 5.7681 3.031305 30.481795 1.140187
2005-01-25 08:43:41 51°18.596 2°50.965 5.7704 3.07131 30.929111 1.207606
2005-01-25 08:43:45 51°18.602 2°50.981 5.7763 3.045938 30.648367 1.207606
2005-01-25 08:43:51 51°18.611 2°51.004 5.789 3.037938 30.560971 1.173896
2005-01-25 08:43:56 51°18.618 2°51.025 5.7906 3.029516 30.463469 1.140187
2005-01-25 08:44:01 51°18.625 2°51.046 5.7861 3.063519 30.836868 1.140187
2005-01-25 08:44:06 51°18.633 2°51.069 5.7792 3.063519 30.836868 1.140187
2005-01-25 08:44:11 51°18.64 2°51.094 5.7815 3.062256 30.819658 1.106477
2005-01-25 08:44:16 51°18.646 2°51.114 5.7743 3.069625 30.900874 1.140187
2005-01-25 08:44:21 51°18.651 2°51.138 5.7777 3.057834 30.773616 1.140187
2005-01-25 08:44:26 51°18.658 2°51.161 5.7766 2.845743 28.420384 1.173896
2005-01-25 08:44:31 51°18.663 2°51.186 5.7896 3.027305 30.42257 1.106477
2005-01-25 08:44:36 51°18.668 2°51.209 5.7844 3.027305 30.42257 1.106477
2005-01-25 08:44:41 51°18.674 2°51.235 5.7807 2.974777 29.841561 1.207606
2005-01-25 08:44:46 51°18.679 2°51.258 5.7775 2.446435 24.065296 1.173896
2005-01-25 08:44:51 51°18.685 2°51.284 5.7724 3.030568 30.462703 1.106477
2005-01-25 08:44:56 51°18.69 2°51.305 5.782 3.041411 30.587079 1.241315
2005-01-25 08:45:00 51°18.694 2°51.324 5.7721 3.048254 30.662362 1.241315
2005-01-25 08:45:05 51°18.7 2°51.35 5.769 3.048254 30.662362 1.241315
2005-01-25 08:45:11 51°18.706 2°51.38 5.7707 2.53403 25.011901 1.241315
2005-01-25 08:45:16 51°18.711 2°51.401 5.7716 3.052886 30.709156 1.241315
2005-01-25 08:45:21 51°18.717 2°51.426 5.7737 3.077206 30.981291 1.376153
2005-01-25 08:45:26 51°18.723 2°51.449 5.7729 2.26825 22.155653 1.241315
2005-01-25 08:45:31 51°18.728 2°51.476 5.7741 2.984882 29.961941 1.275024
2005-01-25 08:45:36 51°18.733 2°51.497 5.7763 2.984882 29.961941 1.275024
2005-01-25 08:45:41 51°18.739 2°51.522 5.7631 3.076469 30.980215 1.241315
2005-01-25 08:45:45 51°18.743 2°51.543 5.7651 3.020673 30.363683 1.241315
2005-01-25 08:45:51 51°18.749 2°51.569 5.7681 2.949936 29.580933 1.207606
2005-01-25 08:45:56 51°18.755 2°51.593 5.7643 3.049097 30.680353 1.275024
2005-01-25 08:46:01 51°18.761 2°51.618 5.7576 3.040043 30.578123 1.275024
2005-01-25 08:46:05 51°18.766 2°51.639 5.7528 3.040043 30.578123 1.275024
2005-01-25 08:46:10 51°18.77 2°51.662 5.7488 3.022463 30.380452 1.308734
2005-01-25 08:46:16 51°18.778 2°51.69 5.7583 3.068889 30.898992 1.207606
2005-01-25 08:46:21 51°18.783 2°51.713 5.7581 2.270247 22.184933 1.207606
2005-01-25 08:46:26 51°18.789 2°51.738 5.7585 3.052781 30.723692 1.207606
2005-01-25 08:46:31 51°18.795 2°51.765 5.7572 3.003199 30.176638 1.207606
2005-01-25 08:46:36 51°18.801 2°51.786 5.7856 3.003199 30.176638 1.207606
2005-01-25 08:46:41 51°18.806 2°51.813 5.7731 2.901731 29.057641 1.308734
2005-01-25 08:46:45 51°18.811 2°51.832 5.769 3.049939 30.703067 1.275024
2005-01-25 08:46:51 51°18.818 2°51.861 5.7578 3.025516 30.431475 1.275024
2005-01-25 08:46:56 51°18.823 2°51.882 5.7636 2.996672 30.108831 1.275024
2005-01-25 08:47:01 51°18.829 2°51.907 5.7556 3.043728 30.630049 1.275024
2005-01-25 08:47:06 51°18.835 2°51.931 5.7716 3.043728 30.630049 1.275024
2005-01-25 08:47:11 51°18.841 2°51.957 5.7678 3.024252 30.410435 1.409862
2005-01-25 08:47:16 51°18.847 2°51.979 5.7712 3.060782 30.811138 1.308734
2005-01-25 08:47:20 51°18.851 2°52.001 5.7652 3.056255 30.759982 1.5447
2005-01-25 08:47:25 51°18.858 2°52.024 5.7553 3.061098 30.817805 1.51099
2005-01-25 08:47:31 51°18.864 2°52.053 5.7561 2.377359 23.336236 1.612118
2005-01-25 08:47:36 51°18.87 2°52.074 5.7492 2.377359 23.336236 1.612118
2005-01-25 08:47:41 51°18.876 2°52.098 5.7794 3.045728 30.646809 1.645828
2005-01-25 08:47:45 51°18.881 2°52.12 5.7673 2.975198 29.86225 1.713247
2005-01-25 08:47:51 51°18.888 2°52.146 5.7592 2.995304 30.084411 1.612118
2005-01-25 08:47:56 51°18.893 2°52.169 5.7585 3.043412 30.618705 1.746956
2005-01-25 08:48:00 51°18.898 2°52.189 5.7515 3.041201 30.599602 1.645828
2005-01-25 08:48:05 51°18.904 2°52.215 5.7548 3.041201 30.599602 1.645828
2005-01-25 08:48:10 51°18.91 2°52.237 5.7571 3.049728 30.698368 1.679537
2005-01-25 08:48:16 51°18.917 2°52.265 5.7719 3.057624 30.787018 1.51099
2005-01-25 08:48:21 51°18.923 2°52.291 5.7397 2.975304 29.867999 1.5447
2005-01-25 08:48:25 51°18.927 2°52.31 5.7285 3.027095 30.444352 1.645828
2005-01-25 08:48:31 51°18.935 2°52.338 5.741 3.051623 30.71788 1.342443
2005-01-25 08:48:36 51°18.94 2°52.361 5.7504 3.051623 30.71788 1.342443
2005-01-25 08:48:41 51°18.946 2°52.384 5.7434 3.035095 30.536403 1.342443
2005-01-25 08:48:45 51°18.951 2°52.406 5.741 2.477454 24.41895 1.409862
2005-01-25 08:48:51 51°18.958 2°52.434 5.7604 3.052992 30.733108 1.308734
2005-01-25 08:48:56 51°18.963 2°52.455 5.7618 3.057308 30.789804 1.308734
2005-01-25 08:49:01 51°18.97 2°52.482 5.7656 3.044675 30.654702 1.376153
2005-01-25 08:49:06 51°18.975 2°52.505 5.7502 3.044675 30.654702 1.376153
2005-01-25 08:49:11 51°18.982 2°52.53 5.7587 3.043412 30.641429 1.308734
2005-01-25 08:49:16 51°18.987 2°52.552 5.771 2.936569 29.454105 1.376153
2005-01-25 08:49:21 51°18.994 2°52.579 5.7666 3.012989 30.301598 1.443571
2005-01-25 08:49:26 51°18.999 2°52.602 5.7883 3.038148 30.575042 1.443571
2005-01-25 08:49:31 51°19.006 2°52.627 5.7808 2.461786 24.250811 1.5447
2005-01-25 08:49:36 51°19.011 2°52.649 5.764 2.461786 24.250811 1.5447
2005-01-25 08:49:41 51°19.017 2°52.673 5.7767 2.604603 25.799207 1.578409
2005-01-25 08:49:46 51°19.023 2°52.697 5.7953 3.048676 30.689797 1.645828
2005-01-25 08:49:51 51°19.029 2°52.724 5.7654 2.950147 29.590828 1.746956
2005-01-25 08:49:56 51°19.035 2°52.745 5.7583 2.954462 29.634067 1.814375
2005-01-25 08:50:01 51°19.04 2°52.769 5.7614 3.060993 30.811117 1.881794
2005-01-25 08:50:05 51°19.045 2°52.791 5.7591 3.060993 30.811117 1.881794
2005-01-25 08:50:11 51°19.051 2°52.818 5.7702 2.946779 29.543718 1.982922
2005-01-25 08:50:16 51°19.058 2°52.842 5.7581 3.036569 30.538728 2.08405
2005-01-25 08:50:21 51°19.065 2°52.869 5.7489 3.055834 30.74822 2.151469
2005-01-25 08:50:25 51°19.069 2°52.889 5.7459 3.034674 30.515329 2.151469
2005-01-25 08:50:31 51°19.077 2°52.918 5.7577 2.22947 21.74982 2.185178
2005-01-25 08:50:36 51°19.081 2°52.94 5.7572 2.22947 21.74982 2.185178
2005-01-25 08:50:41 51°19.088 2°52.967 5.7621 3.034464 30.523134 2.286306
2005-01-25 08:50:46 51°19.093 2°52.99 5.7717 2.986146 29.986675 2.286306
2005-01-25 08:50:51 51°19.099 2°53.014 5.7516 3.014146 30.298182 2.252597
2005-01-25 08:50:56 51°19.105 2°53.038 5.7463 3.016462 30.329331 2.218888
2005-01-25 08:51:01 51°19.111 2°53.065 5.7357 3.028253 30.461117 2.387435
2005-01-25 08:51:06 51°19.117 2°53.088 5.73 3.028253 30.461117 2.387435
2005-01-25 08:51:11 51°19.123 2°53.114 5.7447 3.057835 30.790149 2.353725
2005-01-25 08:51:16 51°19.129 2°53.136 5.7325 2.996041 30.101822 2.387435
2005-01-25 08:51:21 51°19.135 2°53.162 5.7314 3.028989 30.464631 2.320016
2005-01-25 08:51:25 51°19.14 2°53.182 5.7176 3.064888 30.868673 2.387435
2005-01-25 08:51:31 51°19.146 2°53.209 5.7258 3.031727 30.504415 2.320016
2005-01-25 08:51:36 51°19.152 2°53.233 5.7321 3.031727 30.504415 2.320016
2005-01-25 08:51:41 51°19.158 2°53.258 5.7107 2.996988 30.124664 2.286306
2005-01-25 08:51:46 51°19.164 2°53.282 5.7171 2.990462 30.052987 2.320016
2005-01-25 08:51:51 51°19.17 2°53.309 5.7168 3.035517 30.555937 2.286306
2005-01-25 08:51:56 51°19.174 2°53.331 5.7196 2.947831 29.58562 2.218888
2005-01-25 08:52:00 51°19.179 2°53.351 5.7102 3.015305 30.34286 2.185178
2005-01-25 08:52:05 51°19.184 2°53.378 5.7118 3.015305 30.34286 2.185178
2005-01-25 08:52:10 51°19.189 2°53.401 5.7038 3.062993 30.873642 2.151469
2005-01-25 08:52:16 51°19.196 2°53.431 5.7052 3.080365 31.069672 2.08405
2005-01-25 08:52:21 51°19.201 2°53.456 5.7201 3.169439 32.069336 2.151469
2005-01-25 08:52:25 51°19.205 2°53.476 5.716 3.168176 32.056825 2.117759
2005-01-25 08:52:31 51°19.211 2°53.505 5.7004 3.167544 32.051391 2.151469
2005-01-25 08:52:36 51°19.215 2°53.527 5.6967 3.167544 32.051391 2.151469
2005-01-25 08:52:40 51°19.219 2°53.547 5.695 3.166596 32.046524 2.117759
2005-01-25 08:52:46 51°19.226 2°53.577 5.6965 3.165754 32.037087 2.117759
2005-01-25 08:52:51 51°19.232 2°53.603 5.6956 3.165017 32.02965 1.982922
2005-01-25 08:52:56 51°19.236 2°53.624 5.6817 3.164069 32.016572 2.185178
2005-01-25 08:53:01 51°19.242 2°53.651 5.6995 3.163753 32.011393 2.151469
2005-01-25 08:53:05 51°19.246 2°53.672 5.6896 3.163753 32.011393 2.151469
2005-01-25 08:53:11 51°19.251 2°53.698 5.7003 3.162911 32.010161 2.185178
2005-01-25 08:53:16 51°19.256 2°53.723 5.6988 3.162069 32.006467 2.218888
2005-01-25 08:53:21 51°19.261 2°53.747 5.6981 3.161542 31.998927 2.185178
2005-01-25 08:53:25 51°19.267 2°53.769 5.7037 3.16091 31.99431 2.218888
2005-01-25 08:53:31 51°19.273 2°53.798 5.6983 3.160384 31.991692 2.117759
2005-01-25 08:53:36 51°19.277 2°53.821 5.6909 3.160384 31.991692 2.117759
2005-01-25 08:53:41 51°19.282 2°53.848 5.6881 3.160068 31.986512 2.151469
2005-01-25 08:53:45 51°19.287 2°53.867 5.7156 3.159647 31.983433 2.151469
2005-01-25 08:53:51 51°19.292 2°53.897 5.6913 3.159647 31.980973 2.117759
2005-01-25 08:53:56 51°19.297 2°53.919 5.6977 3.159647 31.980153 2.08405
2005-01-25 08:54:01 51°19.302 2°53.944 5.6997 3.159857 31.981692 2.050341
2005-01-25 08:54:06 51°19.308 2°53.968 5.7094 3.159857 31.981692 2.050341
2005-01-25 08:54:11 51°19.313 2°53.995 5.7002 3.160384 31.989231 2.185178
2005-01-25 08:54:16 51°19.318 2°54.016 5.7017 3.160489 31.992052 2.117759
2005-01-25 08:54:21 51°19.322 2°54.041 5.7012 3.160805 31.99231 2.185178
2005-01-25 08:54:25 51°19.327 2°54.063 5.7042 3.161332 31.998209 2.185178
2005-01-25 08:54:31 51°19.333 2°54.093 5.7172 3.161753 32.001287 2.286306
2005-01-25 08:54:36 51°19.338 2°54.114 5.6967 3.161753 32.001287 2.286306
2005-01-25 08:54:41 51°19.343 2°54.138 5.7074 3.162279 32.003904 2.252597
2005-01-25 08:54:45 51°19.348 2°54.161 5.7119 3.16249 32.005443 2.252597
2005-01-25 08:54:51 51°19.354 2°54.19 5.7054 3.162911 32.010982 2.286306
2005-01-25 08:54:56 51°19.358 2°54.212 5.7078 3.163227 32.0137 2.218888
2005-01-25 08:55:00 51°19.363 2°54.234 5.7025 3.163543 32.01806 2.185178
2005-01-25 08:55:06 51°19.368 2°54.261 5.7112 3.163543 32.01806 2.185178
2005-01-25 08:55:11 51°19.374 2°54.286 5.7077 3.163859 32.019957 2.218888
2005-01-25 08:55:16 51°19.379 2°54.311 5.7176 3.163859 32.021599 2.151469
2005-01-25 08:55:21 51°19.385 2°54.337 5.7152 3.164174 32.025138 1.915503
2005-01-25 08:55:25 51°19.389 2°54.357 5.7056 3.16428 32.025497 1.881794
2005-01-25 08:55:31 51°19.395 2°54.386 5.71 3.164385 32.024214 1.949212
2005-01-25 08:55:36 51°19.4 2°54.408 5.707 3.164385 32.024214 1.949212
2005-01-25 08:55:41 51°19.405 2°54.436 5.7076 3.164912 32.028471 1.848084
2005-01-25 08:55:45 51°19.41 2°54.455 5.708 3.161331 31.985908 1.814375
2005-01-25 08:55:51 51°19.415 2°54.484 5.7179 3.163121 32.004317 1.814375
2005-01-25 08:55:56 51°19.421 2°54.506 5.7275 3.165649 32.031802 1.679537
2005-01-25 08:56:00 51°19.424 2°54.526 5.7166 3.1627 32.001239 1.746956
2005-01-25 08:56:05 51°19.43 2°54.553 5.7146 3.1627 32.001239 1.746956
2005-01-25 08:56:10 51°19.435 2°54.575 5.7139 3.165964 32.037804 1.780665